<?xml version="1.0" encoding="UTF-8" standalone="no" ?>
<gpx xmlns="http://www.topografix.com/GPX/1/1" xmlns:xsi="http://www.w3.org/2001/XMLSchema-instance" xsi:schemaLocation="http://www.topografix.com/GPX/1/1 http://www.topografix.com/GPX/1/1/gpx.xsd" version="1.1" creator="VisuGPX - https://www.visugpx.com">
  <metadata>
    <name>Metzerle-Mariastein</name>
    <desc><![CDATA[Runmeter Marche 29 juil. 2016 10:18:36]]></desc>
  </metadata>
  <trk>
    <name><![CDATA[Nouveau parcours]]></name>
    <trkseg>
      <trkpt lat="47.46895" lon="7.4874">
        <ele>501</ele>
        <time>2016-07-29T08:18:36Z</time>
      </trkpt>
      <trkpt lat="47.46898" lon="7.4874">
        <ele>503.2</ele>
        <time>2016-07-29T08:18:57Z</time>
      </trkpt>
      <trkpt lat="47.46883" lon="7.48739">
        <ele>504</ele>
        <time>2016-07-29T08:19:05Z</time>
      </trkpt>
      <trkpt lat="47.4687" lon="7.48747">
        <ele>506.6</ele>
        <time>2016-07-29T08:19:26Z</time>
      </trkpt>
      <trkpt lat="47.46867" lon="7.48767">
        <ele>511.4</ele>
        <time>2016-07-29T08:19:48Z</time>
      </trkpt>
      <trkpt lat="47.46863" lon="7.48778">
        <ele>512.6</ele>
        <time>2016-07-29T08:19:58Z</time>
      </trkpt>
      <trkpt lat="47.46849" lon="7.48782">
        <ele>511.5</ele>
        <time>2016-07-29T08:20:10Z</time>
      </trkpt>
      <trkpt lat="47.46849" lon="7.48794">
        <ele>509.8</ele>
        <time>2016-07-29T08:20:17Z</time>
      </trkpt>
      <trkpt lat="47.46843" lon="7.48814">
        <ele>507.3</ele>
        <time>2016-07-29T08:20:19Z</time>
      </trkpt>
      <trkpt lat="47.46841" lon="7.48817">
        <ele>506.2</ele>
        <time>2016-07-29T08:20:20Z</time>
      </trkpt>
      <trkpt lat="47.46836" lon="7.48819">
        <ele>505</ele>
        <time>2016-07-29T08:20:25Z</time>
      </trkpt>
      <trkpt lat="47.46836" lon="7.48817">
        <ele>505</ele>
        <time>2016-07-29T08:20:27Z</time>
      </trkpt>
      <trkpt lat="47.46832" lon="7.48836">
        <ele>518.7</ele>
        <time>2016-07-29T08:20:56Z</time>
      </trkpt>
      <trkpt lat="47.46828" lon="7.48841">
        <ele>520.6</ele>
        <time>2016-07-29T08:21:01Z</time>
      </trkpt>
      <trkpt lat="47.46829" lon="7.48857">
        <ele>526.9</ele>
        <time>2016-07-29T08:21:15Z</time>
      </trkpt>
      <trkpt lat="47.46819" lon="7.48874">
        <ele>537.7</ele>
        <time>2016-07-29T08:21:33Z</time>
      </trkpt>
      <trkpt lat="47.4681" lon="7.48889">
        <ele>530.8</ele>
        <time>2016-07-29T08:21:48Z</time>
      </trkpt>
      <trkpt lat="47.468" lon="7.48902">
        <ele>535.4</ele>
        <time>2016-07-29T08:22:06Z</time>
      </trkpt>
      <trkpt lat="47.46787" lon="7.48913">
        <ele>541.9</ele>
        <time>2016-07-29T08:22:28Z</time>
      </trkpt>
      <trkpt lat="47.46774" lon="7.48924">
        <ele>541</ele>
        <time>2016-07-29T08:22:48Z</time>
      </trkpt>
      <trkpt lat="47.46761" lon="7.48934">
        <ele>539.7</ele>
        <time>2016-07-29T08:23:08Z</time>
      </trkpt>
      <trkpt lat="47.46749" lon="7.48944">
        <ele>541.1</ele>
        <time>2016-07-29T08:23:23Z</time>
      </trkpt>
      <trkpt lat="47.46737" lon="7.48936">
        <ele>542.8</ele>
        <time>2016-07-29T08:23:38Z</time>
      </trkpt>
      <trkpt lat="47.46734" lon="7.48958">
        <ele>544.5</ele>
        <time>2016-07-29T08:23:48Z</time>
      </trkpt>
      <trkpt lat="47.46733" lon="7.48963">
        <ele>545.6</ele>
        <time>2016-07-29T08:23:52Z</time>
      </trkpt>
      <trkpt lat="47.46729" lon="7.48956">
        <ele>547.2</ele>
        <time>2016-07-29T08:24:03Z</time>
      </trkpt>
      <trkpt lat="47.46719" lon="7.48971">
        <ele>548.3</ele>
        <time>2016-07-29T08:24:18Z</time>
      </trkpt>
      <trkpt lat="47.46713" lon="7.48975">
        <ele>547.3</ele>
        <time>2016-07-29T08:24:26Z</time>
      </trkpt>
      <trkpt lat="47.46704" lon="7.48974">
        <ele>544.3</ele>
        <time>2016-07-29T08:24:39Z</time>
      </trkpt>
      <trkpt lat="47.46695" lon="7.48994">
        <ele>542.8</ele>
        <time>2016-07-29T08:24:56Z</time>
      </trkpt>
      <trkpt lat="47.46685" lon="7.49005">
        <ele>541.3</ele>
        <time>2016-07-29T08:25:15Z</time>
      </trkpt>
      <trkpt lat="47.46671" lon="7.49004">
        <ele>546.2</ele>
        <time>2016-07-29T08:25:33Z</time>
      </trkpt>
      <trkpt lat="47.46663" lon="7.49022">
        <ele>552.7</ele>
        <time>2016-07-29T08:25:58Z</time>
      </trkpt>
      <trkpt lat="47.46655" lon="7.49042">
        <ele>551.7</ele>
        <time>2016-07-29T08:26:15Z</time>
      </trkpt>
      <trkpt lat="47.46646" lon="7.49048">
        <ele>551.1</ele>
        <time>2016-07-29T08:26:25Z</time>
      </trkpt>
      <trkpt lat="47.46638" lon="7.49037">
        <ele>552.7</ele>
        <time>2016-07-29T08:26:33Z</time>
      </trkpt>
      <trkpt lat="47.46627" lon="7.49051">
        <ele>556.3</ele>
        <time>2016-07-29T08:26:48Z</time>
      </trkpt>
      <trkpt lat="47.46623" lon="7.49061">
        <ele>561.9</ele>
        <time>2016-07-29T08:26:59Z</time>
      </trkpt>
      <trkpt lat="47.46616" lon="7.49078">
        <ele>572.5</ele>
        <time>2016-07-29T08:27:21Z</time>
      </trkpt>
      <trkpt lat="47.46605" lon="7.49071">
        <ele>574.2</ele>
        <time>2016-07-29T08:27:34Z</time>
      </trkpt>
      <trkpt lat="47.46601" lon="7.49092">
        <ele>575.5</ele>
        <time>2016-07-29T08:27:46Z</time>
      </trkpt>
      <trkpt lat="47.46592" lon="7.49107">
        <ele>576.2</ele>
        <time>2016-07-29T08:28:06Z</time>
      </trkpt>
      <trkpt lat="47.4658" lon="7.49118">
        <ele>586.6</ele>
        <time>2016-07-29T08:28:33Z</time>
      </trkpt>
      <trkpt lat="47.46573" lon="7.49137">
        <ele>583.9</ele>
        <time>2016-07-29T08:28:58Z</time>
      </trkpt>
      <trkpt lat="47.46567" lon="7.49148">
        <ele>589</ele>
        <time>2016-07-29T08:29:12Z</time>
      </trkpt>
      <trkpt lat="47.46563" lon="7.49145">
        <ele>592.1</ele>
        <time>2016-07-29T08:29:18Z</time>
      </trkpt>
      <trkpt lat="47.46553" lon="7.4916">
        <ele>600.8</ele>
        <time>2016-07-29T08:29:47Z</time>
      </trkpt>
      <trkpt lat="47.4654" lon="7.49153">
        <ele>606.2</ele>
        <time>2016-07-29T08:30:16Z</time>
      </trkpt>
      <trkpt lat="47.46532" lon="7.49135">
        <ele>612.4</ele>
        <time>2016-07-29T08:30:43Z</time>
      </trkpt>
      <trkpt lat="47.46523" lon="7.49131">
        <ele>616.4</ele>
        <time>2016-07-29T08:30:53Z</time>
      </trkpt>
      <trkpt lat="47.46515" lon="7.49115">
        <ele>623.3</ele>
        <time>2016-07-29T08:31:24Z</time>
      </trkpt>
      <trkpt lat="47.46506" lon="7.49099">
        <ele>624.8</ele>
        <time>2016-07-29T08:31:41Z</time>
      </trkpt>
      <trkpt lat="47.46497" lon="7.49083">
        <ele>629</ele>
        <time>2016-07-29T08:32:00Z</time>
      </trkpt>
      <trkpt lat="47.46488" lon="7.49068">
        <ele>635.4</ele>
        <time>2016-07-29T08:32:19Z</time>
      </trkpt>
      <trkpt lat="47.46485" lon="7.49048">
        <ele>637.5</ele>
        <time>2016-07-29T08:32:44Z</time>
      </trkpt>
      <trkpt lat="47.46481" lon="7.49027">
        <ele>641.9</ele>
        <time>2016-07-29T08:33:04Z</time>
      </trkpt>
      <trkpt lat="47.46467" lon="7.49023">
        <ele>643.6</ele>
        <time>2016-07-29T08:33:14Z</time>
      </trkpt>
      <trkpt lat="47.46456" lon="7.49003">
        <ele>649.6</ele>
        <time>2016-07-29T08:33:39Z</time>
      </trkpt>
      <trkpt lat="47.46455" lon="7.48997">
        <ele>650</ele>
        <time>2016-07-29T08:33:53Z</time>
      </trkpt>
      <trkpt lat="47.46441" lon="7.4899">
        <ele>657.9</ele>
        <time>2016-07-29T08:34:07Z</time>
      </trkpt>
      <trkpt lat="47.46426" lon="7.48984">
        <ele>658.3</ele>
        <time>2016-07-29T08:34:30Z</time>
      </trkpt>
      <trkpt lat="47.46411" lon="7.48979">
        <ele>654.7</ele>
        <time>2016-07-29T08:34:36Z</time>
      </trkpt>
      <trkpt lat="47.46402" lon="7.48964">
        <ele>663.8</ele>
        <time>2016-07-29T08:35:10Z</time>
      </trkpt>
      <trkpt lat="47.46389" lon="7.48957">
        <ele>663.7</ele>
        <time>2016-07-29T08:35:36Z</time>
      </trkpt>
      <trkpt lat="47.4639" lon="7.48953">
        <ele>662.8</ele>
        <time>2016-07-29T08:35:49Z</time>
      </trkpt>
      <trkpt lat="47.4638" lon="7.48951">
        <ele>663.9</ele>
        <time>2016-07-29T08:36:05Z</time>
      </trkpt>
      <trkpt lat="47.4638" lon="7.4893">
        <ele>668.1</ele>
        <time>2016-07-29T08:36:22Z</time>
      </trkpt>
      <trkpt lat="47.46378" lon="7.48922">
        <ele>671</ele>
        <time>2016-07-29T08:36:29Z</time>
      </trkpt>
      <trkpt lat="47.46375" lon="7.48915">
        <ele>676.2</ele>
        <time>2016-07-29T08:36:41Z</time>
      </trkpt>
      <trkpt lat="47.46376" lon="7.48897">
        <ele>685.7</ele>
        <time>2016-07-29T08:37:02Z</time>
      </trkpt>
      <trkpt lat="47.46364" lon="7.4889">
        <ele>686.2</ele>
        <time>2016-07-29T08:37:11Z</time>
      </trkpt>
      <trkpt lat="47.46353" lon="7.48879">
        <ele>676</ele>
        <time>2016-07-29T08:37:30Z</time>
      </trkpt>
      <trkpt lat="47.46338" lon="7.48875">
        <ele>676.2</ele>
        <time>2016-07-29T08:37:39Z</time>
      </trkpt>
      <trkpt lat="47.46338" lon="7.48871">
        <ele>681</ele>
        <time>2016-07-29T08:37:53Z</time>
      </trkpt>
      <trkpt lat="47.46327" lon="7.48857">
        <ele>693.2</ele>
        <time>2016-07-29T08:38:26Z</time>
      </trkpt>
      <trkpt lat="47.46315" lon="7.48848">
        <ele>696.2</ele>
        <time>2016-07-29T08:38:49Z</time>
      </trkpt>
      <trkpt lat="47.46314" lon="7.48842">
        <ele>695.4</ele>
        <time>2016-07-29T08:38:55Z</time>
      </trkpt>
      <trkpt lat="47.463" lon="7.48839">
        <ele>697.3</ele>
        <time>2016-07-29T08:39:05Z</time>
      </trkpt>
      <trkpt lat="47.46301" lon="7.48819">
        <ele>704.7</ele>
        <time>2016-07-29T08:39:26Z</time>
      </trkpt>
      <trkpt lat="47.46291" lon="7.48801">
        <ele>709.4</ele>
        <time>2016-07-29T08:39:43Z</time>
      </trkpt>
      <trkpt lat="47.46279" lon="7.48788">
        <ele>711.7</ele>
        <time>2016-07-29T08:40:09Z</time>
      </trkpt>
      <trkpt lat="47.46268" lon="7.48777">
        <ele>706.5</ele>
        <time>2016-07-29T08:40:31Z</time>
      </trkpt>
      <trkpt lat="47.46256" lon="7.48765">
        <ele>709.5</ele>
        <time>2016-07-29T08:40:47Z</time>
      </trkpt>
      <trkpt lat="47.46242" lon="7.48766">
        <ele>707.6</ele>
        <time>2016-07-29T08:40:54Z</time>
      </trkpt>
      <trkpt lat="47.46235" lon="7.48753">
        <ele>714.4</ele>
        <time>2016-07-29T08:41:06Z</time>
      </trkpt>
      <trkpt lat="47.46223" lon="7.48746">
        <ele>720</ele>
        <time>2016-07-29T08:41:21Z</time>
      </trkpt>
      <trkpt lat="47.46209" lon="7.48737">
        <ele>722</ele>
        <time>2016-07-29T08:41:34Z</time>
      </trkpt>
      <trkpt lat="47.46197" lon="7.48728">
        <ele>722</ele>
        <time>2016-07-29T08:41:52Z</time>
      </trkpt>
      <trkpt lat="47.462" lon="7.48723">
        <ele>722</ele>
        <time>2016-07-29T08:42:03Z</time>
      </trkpt>
      <trkpt lat="47.46189" lon="7.48708">
        <ele>729</ele>
        <time>2016-07-29T08:42:19Z</time>
      </trkpt>
      <trkpt lat="47.46184" lon="7.4869">
        <ele>731.9</ele>
        <time>2016-07-29T08:42:36Z</time>
      </trkpt>
      <trkpt lat="47.46185" lon="7.48683">
        <ele>730.1</ele>
        <time>2016-07-29T08:42:41Z</time>
      </trkpt>
      <trkpt lat="47.46175" lon="7.48669">
        <ele>726.2</ele>
        <time>2016-07-29T08:42:51Z</time>
      </trkpt>
      <trkpt lat="47.46162" lon="7.48659">
        <ele>720</ele>
        <time>2016-07-29T08:43:04Z</time>
      </trkpt>
      <trkpt lat="47.46149" lon="7.48646">
        <ele>721.4</ele>
        <time>2016-07-29T08:43:21Z</time>
      </trkpt>
      <trkpt lat="47.46142" lon="7.48628">
        <ele>729.4</ele>
        <time>2016-07-29T08:43:34Z</time>
      </trkpt>
      <trkpt lat="47.46132" lon="7.48613">
        <ele>733.5</ele>
        <time>2016-07-29T08:43:46Z</time>
      </trkpt>
      <trkpt lat="47.46124" lon="7.48596">
        <ele>733.6</ele>
        <time>2016-07-29T08:44:05Z</time>
      </trkpt>
      <trkpt lat="47.46117" lon="7.48578">
        <ele>733.8</ele>
        <time>2016-07-29T08:44:15Z</time>
      </trkpt>
      <trkpt lat="47.46103" lon="7.48574">
        <ele>733.1</ele>
        <time>2016-07-29T08:44:26Z</time>
      </trkpt>
      <trkpt lat="47.46093" lon="7.4856">
        <ele>731.6</ele>
        <time>2016-07-29T08:44:35Z</time>
      </trkpt>
      <trkpt lat="47.46082" lon="7.48548">
        <ele>736.6</ele>
        <time>2016-07-29T08:44:45Z</time>
      </trkpt>
      <trkpt lat="47.4608" lon="7.48527">
        <ele>743.1</ele>
        <time>2016-07-29T08:45:03Z</time>
      </trkpt>
      <trkpt lat="47.46065" lon="7.48513">
        <ele>742.7</ele>
        <time>2016-07-29T08:45:26Z</time>
      </trkpt>
      <trkpt lat="47.46052" lon="7.48512">
        <ele>737</ele>
        <time>2016-07-29T08:46:14Z</time>
      </trkpt>
      <trkpt lat="47.46039" lon="7.48505">
        <ele>734.2</ele>
        <time>2016-07-29T08:46:31Z</time>
      </trkpt>
      <trkpt lat="47.46027" lon="7.485">
        <ele>733.7</ele>
        <time>2016-07-29T08:46:46Z</time>
      </trkpt>
      <trkpt lat="47.46022" lon="7.48493">
        <ele>735.6</ele>
        <time>2016-07-29T08:47:02Z</time>
      </trkpt>
      <trkpt lat="47.46007" lon="7.48491">
        <ele>734.1</ele>
        <time>2016-07-29T08:47:16Z</time>
      </trkpt>
      <trkpt lat="47.46003" lon="7.48492">
        <ele>733.6</ele>
        <time>2016-07-29T08:47:20Z</time>
      </trkpt>
      <trkpt lat="47.45996" lon="7.48499">
        <ele>740.3</ele>
        <time>2016-07-29T08:47:35Z</time>
      </trkpt>
      <trkpt lat="47.46004" lon="7.48503">
        <ele>746.5</ele>
        <time>2016-07-29T08:47:53Z</time>
      </trkpt>
      <trkpt lat="47.46004" lon="7.48524">
        <ele>749.9</ele>
        <time>2016-07-29T08:48:03Z</time>
      </trkpt>
      <trkpt lat="47.46007" lon="7.48545">
        <ele>751</ele>
        <time>2016-07-29T08:48:12Z</time>
      </trkpt>
      <trkpt lat="47.46003" lon="7.48564">
        <ele>750.9</ele>
        <time>2016-07-29T08:48:31Z</time>
      </trkpt>
      <trkpt lat="47.45996" lon="7.48568">
        <ele>752</ele>
        <time>2016-07-29T08:48:51Z</time>
      </trkpt>
      <trkpt lat="47.46006" lon="7.48552">
        <ele>748.4</ele>
        <time>2016-07-29T08:49:03Z</time>
      </trkpt>
      <trkpt lat="47.45992" lon="7.48548">
        <ele>764</ele>
        <time>2016-07-29T08:50:13Z</time>
      </trkpt>
      <trkpt lat="47.45981" lon="7.48536">
        <ele>762.8</ele>
        <time>2016-07-29T08:50:25Z</time>
      </trkpt>
      <trkpt lat="47.45976" lon="7.48528">
        <ele>762.2</ele>
        <time>2016-07-29T08:50:30Z</time>
      </trkpt>
      <trkpt lat="47.45978" lon="7.48511">
        <ele>762</ele>
        <time>2016-07-29T08:50:38Z</time>
      </trkpt>
      <trkpt lat="47.45972" lon="7.48493">
        <ele>760.9</ele>
        <time>2016-07-29T08:50:47Z</time>
      </trkpt>
      <trkpt lat="47.45967" lon="7.48474">
        <ele>754.7</ele>
        <time>2016-07-29T08:50:59Z</time>
      </trkpt>
      <trkpt lat="47.45965" lon="7.48464">
        <ele>751.7</ele>
        <time>2016-07-29T08:51:03Z</time>
      </trkpt>
      <trkpt lat="47.4595" lon="7.48455">
        <ele>749.8</ele>
        <time>2016-07-29T08:51:08Z</time>
      </trkpt>
      <trkpt lat="47.45948" lon="7.48434">
        <ele>766.1</ele>
        <time>2016-07-29T08:51:39Z</time>
      </trkpt>
      <trkpt lat="47.45937" lon="7.4842">
        <ele>771</ele>
        <time>2016-07-29T08:51:52Z</time>
      </trkpt>
      <trkpt lat="47.45928" lon="7.48404">
        <ele>773.7</ele>
        <time>2016-07-29T08:52:02Z</time>
      </trkpt>
      <trkpt lat="47.45917" lon="7.48392">
        <ele>770.2</ele>
        <time>2016-07-29T08:52:11Z</time>
      </trkpt>
      <trkpt lat="47.45908" lon="7.48387">
        <ele>770.7</ele>
        <time>2016-07-29T08:52:18Z</time>
      </trkpt>
      <trkpt lat="47.45902" lon="7.48367">
        <ele>776.8</ele>
        <time>2016-07-29T08:52:32Z</time>
      </trkpt>
      <trkpt lat="47.45884" lon="7.48357">
        <ele>777.5</ele>
        <time>2016-07-29T08:52:40Z</time>
      </trkpt>
      <trkpt lat="47.45876" lon="7.4834">
        <ele>777</ele>
        <time>2016-07-29T08:52:51Z</time>
      </trkpt>
      <trkpt lat="47.45869" lon="7.4833">
        <ele>778.6</ele>
        <time>2016-07-29T08:53:04Z</time>
      </trkpt>
      <trkpt lat="47.45863" lon="7.48332">
        <ele>779.2</ele>
        <time>2016-07-29T08:53:09Z</time>
      </trkpt>
      <trkpt lat="47.45851" lon="7.48322">
        <ele>775.7</ele>
        <time>2016-07-29T08:53:25Z</time>
      </trkpt>
      <trkpt lat="47.45839" lon="7.48312">
        <ele>774.8</ele>
        <time>2016-07-29T08:53:34Z</time>
      </trkpt>
      <trkpt lat="47.45824" lon="7.48309">
        <ele>773.8</ele>
        <time>2016-07-29T08:53:43Z</time>
      </trkpt>
      <trkpt lat="47.4581" lon="7.48308">
        <ele>774.3</ele>
        <time>2016-07-29T08:53:53Z</time>
      </trkpt>
      <trkpt lat="47.45796" lon="7.48307">
        <ele>778.2</ele>
        <time>2016-07-29T08:54:06Z</time>
      </trkpt>
      <trkpt lat="47.45782" lon="7.48306">
        <ele>779.9</ele>
        <time>2016-07-29T08:54:18Z</time>
      </trkpt>
      <trkpt lat="47.45768" lon="7.48305">
        <ele>784</ele>
        <time>2016-07-29T08:54:31Z</time>
      </trkpt>
      <trkpt lat="47.45755" lon="7.48311">
        <ele>781.5</ele>
        <time>2016-07-29T08:54:45Z</time>
      </trkpt>
      <trkpt lat="47.45749" lon="7.48331">
        <ele>784.2</ele>
        <time>2016-07-29T08:55:15Z</time>
      </trkpt>
      <trkpt lat="47.45747" lon="7.48353">
        <ele>793.9</ele>
        <time>2016-07-29T08:55:40Z</time>
      </trkpt>
      <trkpt lat="47.45738" lon="7.48369">
        <ele>792.1</ele>
        <time>2016-07-29T08:55:54Z</time>
      </trkpt>
      <trkpt lat="47.45733" lon="7.48369">
        <ele>791.8</ele>
        <time>2016-07-29T08:55:56Z</time>
      </trkpt>
      <trkpt lat="47.45738" lon="7.48389">
        <ele>795.5</ele>
        <time>2016-07-29T08:56:15Z</time>
      </trkpt>
      <trkpt lat="47.4573" lon="7.48407">
        <ele>793.3</ele>
        <time>2016-07-29T08:56:31Z</time>
      </trkpt>
      <trkpt lat="47.45723" lon="7.48417">
        <ele>800</ele>
        <time>2016-07-29T08:56:46Z</time>
      </trkpt>
      <trkpt lat="47.45724" lon="7.48436">
        <ele>798.6</ele>
        <time>2016-07-29T08:56:57Z</time>
      </trkpt>
      <trkpt lat="47.45719" lon="7.48432">
        <ele>797.7</ele>
        <time>2016-07-29T08:57:03Z</time>
      </trkpt>
      <trkpt lat="47.45718" lon="7.48439">
        <ele>796.4</ele>
        <time>2016-07-29T08:57:12Z</time>
      </trkpt>
      <trkpt lat="47.45725" lon="7.48441">
        <ele>795.1</ele>
        <time>2016-07-29T08:57:23Z</time>
      </trkpt>
      <trkpt lat="47.45728" lon="7.48452">
        <ele>795.9</ele>
        <time>2016-07-29T08:57:37Z</time>
      </trkpt>
      <trkpt lat="47.45732" lon="7.48456">
        <ele>796.2</ele>
        <time>2016-07-29T08:57:42Z</time>
      </trkpt>
      <trkpt lat="47.45737" lon="7.48454">
        <ele>796.8</ele>
        <time>2016-07-29T08:57:53Z</time>
      </trkpt>
      <trkpt lat="47.45728" lon="7.48452">
        <ele>797.1</ele>
        <time>2016-07-29T08:57:58Z</time>
      </trkpt>
      <trkpt lat="47.45726" lon="7.48449">
        <ele>798.4</ele>
        <time>2016-07-29T08:58:20Z</time>
      </trkpt>
      <trkpt lat="47.45726" lon="7.48455">
        <ele>798.8</ele>
        <time>2016-07-29T08:58:28Z</time>
      </trkpt>
      <trkpt lat="47.45722" lon="7.48461">
        <ele>797.3</ele>
        <time>2016-07-29T08:58:42Z</time>
      </trkpt>
      <trkpt lat="47.45724" lon="7.48441">
        <ele>799.8</ele>
        <time>2016-07-29T08:59:15Z</time>
      </trkpt>
      <trkpt lat="47.45711" lon="7.48429">
        <ele>800.2</ele>
        <time>2016-07-29T08:59:31Z</time>
      </trkpt>
      <trkpt lat="47.45724" lon="7.48421">
        <ele>799.5</ele>
        <time>2016-07-29T08:59:38Z</time>
      </trkpt>
      <trkpt lat="47.4572" lon="7.48428">
        <ele>797.2</ele>
        <time>2016-07-29T09:00:08Z</time>
      </trkpt>
      <trkpt lat="47.45712" lon="7.48409">
        <ele>803</ele>
        <time>2016-07-29T09:00:39Z</time>
      </trkpt>
      <trkpt lat="47.45704" lon="7.48392">
        <ele>806.8</ele>
        <time>2016-07-29T09:00:51Z</time>
      </trkpt>
      <trkpt lat="47.45699" lon="7.48373">
        <ele>812.5</ele>
        <time>2016-07-29T09:01:06Z</time>
      </trkpt>
      <trkpt lat="47.45687" lon="7.4836">
        <ele>806.6</ele>
        <time>2016-07-29T09:01:18Z</time>
      </trkpt>
      <trkpt lat="47.45674" lon="7.48351">
        <ele>803.8</ele>
        <time>2016-07-29T09:01:25Z</time>
      </trkpt>
      <trkpt lat="47.45661" lon="7.48346">
        <ele>800.5</ele>
        <time>2016-07-29T09:01:33Z</time>
      </trkpt>
      <trkpt lat="47.45653" lon="7.48328">
        <ele>802.5</ele>
        <time>2016-07-29T09:01:48Z</time>
      </trkpt>
      <trkpt lat="47.45642" lon="7.48315">
        <ele>805.5</ele>
        <time>2016-07-29T09:02:00Z</time>
      </trkpt>
      <trkpt lat="47.45629" lon="7.48303">
        <ele>806.5</ele>
        <time>2016-07-29T09:02:12Z</time>
      </trkpt>
      <trkpt lat="47.45621" lon="7.48295">
        <ele>807.5</ele>
        <time>2016-07-29T09:02:20Z</time>
      </trkpt>
      <trkpt lat="47.45617" lon="7.48285">
        <ele>806</ele>
        <time>2016-07-29T09:02:25Z</time>
      </trkpt>
      <trkpt lat="47.45611" lon="7.48283">
        <ele>805.7</ele>
        <time>2016-07-29T09:02:31Z</time>
      </trkpt>
      <trkpt lat="47.45598" lon="7.48273">
        <ele>807.6</ele>
        <time>2016-07-29T09:02:42Z</time>
      </trkpt>
      <trkpt lat="47.45584" lon="7.48266">
        <ele>806</ele>
        <time>2016-07-29T09:02:49Z</time>
      </trkpt>
      <trkpt lat="47.4557" lon="7.4826">
        <ele>805</ele>
        <time>2016-07-29T09:03:00Z</time>
      </trkpt>
      <trkpt lat="47.4556" lon="7.48247">
        <ele>806.8</ele>
        <time>2016-07-29T09:03:10Z</time>
      </trkpt>
      <trkpt lat="47.45552" lon="7.48229">
        <ele>808.4</ele>
        <time>2016-07-29T09:03:23Z</time>
      </trkpt>
      <trkpt lat="47.45545" lon="7.4821">
        <ele>806.8</ele>
        <time>2016-07-29T09:03:32Z</time>
      </trkpt>
      <trkpt lat="47.45534" lon="7.48198">
        <ele>808.6</ele>
        <time>2016-07-29T09:03:42Z</time>
      </trkpt>
      <trkpt lat="47.45529" lon="7.48178">
        <ele>806.8</ele>
        <time>2016-07-29T09:03:56Z</time>
      </trkpt>
      <trkpt lat="47.45517" lon="7.48166">
        <ele>806</ele>
        <time>2016-07-29T09:04:08Z</time>
      </trkpt>
      <trkpt lat="47.45512" lon="7.48147">
        <ele>803.8</ele>
        <time>2016-07-29T09:04:18Z</time>
      </trkpt>
      <trkpt lat="47.45505" lon="7.48129">
        <ele>803</ele>
        <time>2016-07-29T09:04:27Z</time>
      </trkpt>
      <trkpt lat="47.45497" lon="7.48113">
        <ele>802</ele>
        <time>2016-07-29T09:04:39Z</time>
      </trkpt>
      <trkpt lat="47.45487" lon="7.48099">
        <ele>805.5</ele>
        <time>2016-07-29T09:04:51Z</time>
      </trkpt>
      <trkpt lat="47.45477" lon="7.48083">
        <ele>801.6</ele>
        <time>2016-07-29T09:05:00Z</time>
      </trkpt>
      <trkpt lat="47.45469" lon="7.48066">
        <ele>799.8</ele>
        <time>2016-07-29T09:05:09Z</time>
      </trkpt>
      <trkpt lat="47.45462" lon="7.48049">
        <ele>799.7</ele>
        <time>2016-07-29T09:05:19Z</time>
      </trkpt>
      <trkpt lat="47.45454" lon="7.48033">
        <ele>798</ele>
        <time>2016-07-29T09:05:28Z</time>
      </trkpt>
      <trkpt lat="47.45453" lon="7.48011">
        <ele>789</ele>
        <time>2016-07-29T09:05:34Z</time>
      </trkpt>
      <trkpt lat="47.45451" lon="7.4799">
        <ele>790.3</ele>
        <time>2016-07-29T09:05:39Z</time>
      </trkpt>
      <trkpt lat="47.45445" lon="7.47972">
        <ele>793</ele>
        <time>2016-07-29T09:05:51Z</time>
      </trkpt>
      <trkpt lat="47.45441" lon="7.47952">
        <ele>793</ele>
        <time>2016-07-29T09:06:02Z</time>
      </trkpt>
      <trkpt lat="47.45442" lon="7.4793">
        <ele>787.2</ele>
        <time>2016-07-29T09:06:12Z</time>
      </trkpt>
      <trkpt lat="47.45435" lon="7.47912">
        <ele>790.4</ele>
        <time>2016-07-29T09:06:24Z</time>
      </trkpt>
      <trkpt lat="47.4543" lon="7.47891">
        <ele>796.2</ele>
        <time>2016-07-29T09:06:38Z</time>
      </trkpt>
      <trkpt lat="47.45428" lon="7.47871">
        <ele>801.7</ele>
        <time>2016-07-29T09:06:49Z</time>
      </trkpt>
      <trkpt lat="47.45423" lon="7.47851">
        <ele>807.3</ele>
        <time>2016-07-29T09:07:00Z</time>
      </trkpt>
      <trkpt lat="47.45429" lon="7.47832">
        <ele>811.8</ele>
        <time>2016-07-29T09:07:09Z</time>
      </trkpt>
      <trkpt lat="47.45433" lon="7.47818">
        <ele>817</ele>
        <time>2016-07-29T09:07:19Z</time>
      </trkpt>
      <trkpt lat="47.45442" lon="7.47802">
        <ele>819.7</ele>
        <time>2016-07-29T09:07:26Z</time>
      </trkpt>
      <trkpt lat="47.45444" lon="7.4778">
        <ele>816</ele>
        <time>2016-07-29T09:07:38Z</time>
      </trkpt>
      <trkpt lat="47.45449" lon="7.47761">
        <ele>813.4</ele>
        <time>2016-07-29T09:07:45Z</time>
      </trkpt>
      <trkpt lat="47.45444" lon="7.4774">
        <ele>813.6</ele>
        <time>2016-07-29T09:08:00Z</time>
      </trkpt>
      <trkpt lat="47.45447" lon="7.47721">
        <ele>814.5</ele>
        <time>2016-07-29T09:08:09Z</time>
      </trkpt>
      <trkpt lat="47.45453" lon="7.47701">
        <ele>813.2</ele>
        <time>2016-07-29T09:08:17Z</time>
      </trkpt>
      <trkpt lat="47.45454" lon="7.47681">
        <ele>811</ele>
        <time>2016-07-29T09:08:25Z</time>
      </trkpt>
      <trkpt lat="47.45455" lon="7.4766">
        <ele>806.2</ele>
        <time>2016-07-29T09:08:33Z</time>
      </trkpt>
      <trkpt lat="47.45445" lon="7.47635">
        <ele>800</ele>
        <time>2016-07-29T09:08:41Z</time>
      </trkpt>
      <trkpt lat="47.45449" lon="7.47614">
        <ele>791.9</ele>
        <time>2016-07-29T09:08:50Z</time>
      </trkpt>
      <trkpt lat="47.45448" lon="7.47605">
        <ele>795</ele>
        <time>2016-07-29T09:08:58Z</time>
      </trkpt>
      <trkpt lat="47.45435" lon="7.47596">
        <ele>799.5</ele>
        <time>2016-07-29T09:09:09Z</time>
      </trkpt>
      <trkpt lat="47.45429" lon="7.47577">
        <ele>803.4</ele>
        <time>2016-07-29T09:09:21Z</time>
      </trkpt>
      <trkpt lat="47.45423" lon="7.47559">
        <ele>798.7</ele>
        <time>2016-07-29T09:09:29Z</time>
      </trkpt>
      <trkpt lat="47.45418" lon="7.47539">
        <ele>795.2</ele>
        <time>2016-07-29T09:09:40Z</time>
      </trkpt>
      <trkpt lat="47.45407" lon="7.47528">
        <ele>797.7</ele>
        <time>2016-07-29T09:09:48Z</time>
      </trkpt>
      <trkpt lat="47.45395" lon="7.47518">
        <ele>802.3</ele>
        <time>2016-07-29T09:09:57Z</time>
      </trkpt>
      <trkpt lat="47.45387" lon="7.47511">
        <ele>802.7</ele>
        <time>2016-07-29T09:10:03Z</time>
      </trkpt>
      <trkpt lat="47.45386" lon="7.47491">
        <ele>795</ele>
        <time>2016-07-29T09:10:10Z</time>
      </trkpt>
      <trkpt lat="47.45382" lon="7.4747">
        <ele>792.3</ele>
        <time>2016-07-29T09:10:20Z</time>
      </trkpt>
      <trkpt lat="47.45373" lon="7.47452">
        <ele>789.1</ele>
        <time>2016-07-29T09:10:29Z</time>
      </trkpt>
      <trkpt lat="47.45368" lon="7.47432">
        <ele>785.4</ele>
        <time>2016-07-29T09:10:36Z</time>
      </trkpt>
      <trkpt lat="47.45367" lon="7.47411">
        <ele>780.7</ele>
        <time>2016-07-29T09:10:46Z</time>
      </trkpt>
      <trkpt lat="47.45364" lon="7.47391">
        <ele>782.1</ele>
        <time>2016-07-29T09:10:56Z</time>
      </trkpt>
      <trkpt lat="47.45363" lon="7.4737">
        <ele>785.3</ele>
        <time>2016-07-29T09:11:05Z</time>
      </trkpt>
      <trkpt lat="47.45361" lon="7.47348">
        <ele>778.7</ele>
        <time>2016-07-29T09:11:15Z</time>
      </trkpt>
      <trkpt lat="47.45353" lon="7.4733">
        <ele>775.3</ele>
        <time>2016-07-29T09:11:27Z</time>
      </trkpt>
      <trkpt lat="47.45355" lon="7.4731">
        <ele>779.3</ele>
        <time>2016-07-29T09:11:39Z</time>
      </trkpt>
      <trkpt lat="47.45351" lon="7.47292">
        <ele>784.7</ele>
        <time>2016-07-29T09:11:49Z</time>
      </trkpt>
      <trkpt lat="47.45346" lon="7.47281">
        <ele>787.3</ele>
        <time>2016-07-29T09:11:54Z</time>
      </trkpt>
      <trkpt lat="47.45359" lon="7.47265">
        <ele>784</ele>
        <time>2016-07-29T09:11:59Z</time>
      </trkpt>
      <trkpt lat="47.45361" lon="7.4725">
        <ele>780.7</ele>
        <time>2016-07-29T09:12:04Z</time>
      </trkpt>
      <trkpt lat="47.45348" lon="7.47241">
        <ele>784.4</ele>
        <time>2016-07-29T09:12:12Z</time>
      </trkpt>
      <trkpt lat="47.45336" lon="7.47231">
        <ele>786.4</ele>
        <time>2016-07-29T09:12:21Z</time>
      </trkpt>
      <trkpt lat="47.45329" lon="7.47207">
        <ele>788.8</ele>
        <time>2016-07-29T09:12:31Z</time>
      </trkpt>
      <trkpt lat="47.45329" lon="7.47187">
        <ele>790.7</ele>
        <time>2016-07-29T09:12:43Z</time>
      </trkpt>
      <trkpt lat="47.45332" lon="7.47161">
        <ele>787.8</ele>
        <time>2016-07-29T09:12:54Z</time>
      </trkpt>
      <trkpt lat="47.45319" lon="7.47151">
        <ele>792</ele>
        <time>2016-07-29T09:13:04Z</time>
      </trkpt>
      <trkpt lat="47.45311" lon="7.47134">
        <ele>790.1</ele>
        <time>2016-07-29T09:13:11Z</time>
      </trkpt>
      <trkpt lat="47.45309" lon="7.47112">
        <ele>789.3</ele>
        <time>2016-07-29T09:13:18Z</time>
      </trkpt>
      <trkpt lat="47.45303" lon="7.47093">
        <ele>790.4</ele>
        <time>2016-07-29T09:13:28Z</time>
      </trkpt>
      <trkpt lat="47.45297" lon="7.47074">
        <ele>791.9</ele>
        <time>2016-07-29T09:13:42Z</time>
      </trkpt>
      <trkpt lat="47.45293" lon="7.47054">
        <ele>786.5</ele>
        <time>2016-07-29T09:13:49Z</time>
      </trkpt>
      <trkpt lat="47.45284" lon="7.47038">
        <ele>783.9</ele>
        <time>2016-07-29T09:13:55Z</time>
      </trkpt>
      <trkpt lat="47.4528" lon="7.47021">
        <ele>782.2</ele>
        <time>2016-07-29T09:14:05Z</time>
      </trkpt>
      <trkpt lat="47.45281" lon="7.47001">
        <ele>782.7</ele>
        <time>2016-07-29T09:14:12Z</time>
      </trkpt>
      <trkpt lat="47.45273" lon="7.46984">
        <ele>783.9</ele>
        <time>2016-07-29T09:14:22Z</time>
      </trkpt>
      <trkpt lat="47.4527" lon="7.46964">
        <ele>784.8</ele>
        <time>2016-07-29T09:14:30Z</time>
      </trkpt>
      <trkpt lat="47.45258" lon="7.46955">
        <ele>785.9</ele>
        <time>2016-07-29T09:14:39Z</time>
      </trkpt>
      <trkpt lat="47.45248" lon="7.46939">
        <ele>782.3</ele>
        <time>2016-07-29T09:14:50Z</time>
      </trkpt>
      <trkpt lat="47.45247" lon="7.46918">
        <ele>778.5</ele>
        <time>2016-07-29T09:15:00Z</time>
      </trkpt>
      <trkpt lat="47.4524" lon="7.46901">
        <ele>778</ele>
        <time>2016-07-29T09:15:09Z</time>
      </trkpt>
      <trkpt lat="47.45236" lon="7.46878">
        <ele>776.7</ele>
        <time>2016-07-29T09:15:17Z</time>
      </trkpt>
      <trkpt lat="47.45228" lon="7.46858">
        <ele>774.1</ele>
        <time>2016-07-29T09:15:29Z</time>
      </trkpt>
      <trkpt lat="47.45222" lon="7.46839">
        <ele>774.8</ele>
        <time>2016-07-29T09:15:42Z</time>
      </trkpt>
      <trkpt lat="47.45217" lon="7.4682">
        <ele>773.4</ele>
        <time>2016-07-29T09:15:54Z</time>
      </trkpt>
      <trkpt lat="47.45212" lon="7.46801">
        <ele>770.6</ele>
        <time>2016-07-29T09:16:02Z</time>
      </trkpt>
      <trkpt lat="47.45202" lon="7.46786">
        <ele>772.3</ele>
        <time>2016-07-29T09:16:10Z</time>
      </trkpt>
      <trkpt lat="47.45198" lon="7.46767">
        <ele>776</ele>
        <time>2016-07-29T09:16:21Z</time>
      </trkpt>
      <trkpt lat="47.45189" lon="7.4675">
        <ele>779</ele>
        <time>2016-07-29T09:16:32Z</time>
      </trkpt>
      <trkpt lat="47.45189" lon="7.46729">
        <ele>780.1</ele>
        <time>2016-07-29T09:16:38Z</time>
      </trkpt>
      <trkpt lat="47.45196" lon="7.46709">
        <ele>781.8</ele>
        <time>2016-07-29T09:16:47Z</time>
      </trkpt>
      <trkpt lat="47.45185" lon="7.46696">
        <ele>784.3</ele>
        <time>2016-07-29T09:17:00Z</time>
      </trkpt>
      <trkpt lat="47.45181" lon="7.46674">
        <ele>788.6</ele>
        <time>2016-07-29T09:17:11Z</time>
      </trkpt>
      <trkpt lat="47.45177" lon="7.46654">
        <ele>784.8</ele>
        <time>2016-07-29T09:17:20Z</time>
      </trkpt>
      <trkpt lat="47.45177" lon="7.46633">
        <ele>783</ele>
        <time>2016-07-29T09:17:27Z</time>
      </trkpt>
      <trkpt lat="47.45171" lon="7.46614">
        <ele>780.9</ele>
        <time>2016-07-29T09:17:39Z</time>
      </trkpt>
      <trkpt lat="47.45161" lon="7.46598">
        <ele>779.4</ele>
        <time>2016-07-29T09:17:45Z</time>
      </trkpt>
      <trkpt lat="47.4516" lon="7.46578">
        <ele>769.1</ele>
        <time>2016-07-29T09:17:55Z</time>
      </trkpt>
      <trkpt lat="47.45152" lon="7.46561">
        <ele>770.4</ele>
        <time>2016-07-29T09:18:06Z</time>
      </trkpt>
      <trkpt lat="47.45145" lon="7.46549">
        <ele>772.2</ele>
        <time>2016-07-29T09:18:14Z</time>
      </trkpt>
      <trkpt lat="47.45144" lon="7.46528">
        <ele>771.4</ele>
        <time>2016-07-29T09:18:25Z</time>
      </trkpt>
      <trkpt lat="47.45132" lon="7.46518">
        <ele>770.1</ele>
        <time>2016-07-29T09:18:32Z</time>
      </trkpt>
      <trkpt lat="47.45134" lon="7.46497">
        <ele>768.9</ele>
        <time>2016-07-29T09:18:39Z</time>
      </trkpt>
      <trkpt lat="47.45144" lon="7.46481">
        <ele>768.1</ele>
        <time>2016-07-29T09:18:45Z</time>
      </trkpt>
      <trkpt lat="47.45138" lon="7.46462">
        <ele>768.4</ele>
        <time>2016-07-29T09:18:58Z</time>
      </trkpt>
      <trkpt lat="47.4513" lon="7.46445">
        <ele>772</ele>
        <time>2016-07-29T09:19:12Z</time>
      </trkpt>
      <trkpt lat="47.45132" lon="7.46421">
        <ele>773.1</ele>
        <time>2016-07-29T09:19:20Z</time>
      </trkpt>
      <trkpt lat="47.4513" lon="7.46393">
        <ele>775.7</ele>
        <time>2016-07-29T09:19:32Z</time>
      </trkpt>
      <trkpt lat="47.45124" lon="7.46382">
        <ele>778.3</ele>
        <time>2016-07-29T09:19:43Z</time>
      </trkpt>
      <trkpt lat="47.45121" lon="7.46372">
        <ele>780.8</ele>
        <time>2016-07-29T09:19:54Z</time>
      </trkpt>
      <trkpt lat="47.45119" lon="7.46369">
        <ele>781.7</ele>
        <time>2016-07-29T09:19:56Z</time>
      </trkpt>
      <trkpt lat="47.45132" lon="7.46361">
        <ele>787.1</ele>
        <time>2016-07-29T09:20:03Z</time>
      </trkpt>
      <trkpt lat="47.45138" lon="7.46348">
        <ele>793.2</ele>
        <time>2016-07-29T09:20:11Z</time>
      </trkpt>
      <trkpt lat="47.45128" lon="7.46331">
        <ele>792.9</ele>
        <time>2016-07-29T09:20:18Z</time>
      </trkpt>
      <trkpt lat="47.45133" lon="7.4631">
        <ele>791.1</ele>
        <time>2016-07-29T09:20:28Z</time>
      </trkpt>
      <trkpt lat="47.45128" lon="7.46291">
        <ele>787.4</ele>
        <time>2016-07-29T09:20:43Z</time>
      </trkpt>
      <trkpt lat="47.4512" lon="7.46274">
        <ele>781.9</ele>
        <time>2016-07-29T09:20:58Z</time>
      </trkpt>
      <trkpt lat="47.4512" lon="7.46266">
        <ele>780.2</ele>
        <time>2016-07-29T09:21:02Z</time>
      </trkpt>
      <trkpt lat="47.45107" lon="7.46262">
        <ele>778</ele>
        <time>2016-07-29T09:21:07Z</time>
      </trkpt>
      <trkpt lat="47.451" lon="7.46257">
        <ele>779</ele>
        <time>2016-07-29T09:21:09Z</time>
      </trkpt>
      <trkpt lat="47.45101" lon="7.46249">
        <ele>780.3</ele>
        <time>2016-07-29T09:21:12Z</time>
      </trkpt>
      <trkpt lat="47.45113" lon="7.46241">
        <ele>782.1</ele>
        <time>2016-07-29T09:21:16Z</time>
      </trkpt>
      <trkpt lat="47.45119" lon="7.46231">
        <ele>779</ele>
        <time>2016-07-29T09:21:22Z</time>
      </trkpt>
      <trkpt lat="47.45123" lon="7.46211">
        <ele>783</ele>
        <time>2016-07-29T09:21:33Z</time>
      </trkpt>
      <trkpt lat="47.45131" lon="7.46193">
        <ele>780</ele>
        <time>2016-07-29T09:21:41Z</time>
      </trkpt>
      <trkpt lat="47.4514" lon="7.46176">
        <ele>783.3</ele>
        <time>2016-07-29T09:21:46Z</time>
      </trkpt>
      <trkpt lat="47.45147" lon="7.46158">
        <ele>777.4</ele>
        <time>2016-07-29T09:21:56Z</time>
      </trkpt>
      <trkpt lat="47.45137" lon="7.4614">
        <ele>777.3</ele>
        <time>2016-07-29T09:22:09Z</time>
      </trkpt>
      <trkpt lat="47.45141" lon="7.46127">
        <ele>770.6</ele>
        <time>2016-07-29T09:22:25Z</time>
      </trkpt>
      <trkpt lat="47.45133" lon="7.46123">
        <ele>768.6</ele>
        <time>2016-07-29T09:22:31Z</time>
      </trkpt>
      <trkpt lat="47.4513" lon="7.46138">
        <ele>767.9</ele>
        <time>2016-07-29T09:22:39Z</time>
      </trkpt>
      <trkpt lat="47.45125" lon="7.46139">
        <ele>767.5</ele>
        <time>2016-07-29T09:22:43Z</time>
      </trkpt>
      <trkpt lat="47.45126" lon="7.46133">
        <ele>769</ele>
        <time>2016-07-29T09:22:52Z</time>
      </trkpt>
      <trkpt lat="47.45138" lon="7.46132">
        <ele>775.7</ele>
        <time>2016-07-29T09:23:05Z</time>
      </trkpt>
      <trkpt lat="47.45133" lon="7.46138">
        <ele>777</ele>
        <time>2016-07-29T09:23:08Z</time>
      </trkpt>
      <trkpt lat="47.45127" lon="7.46123">
        <ele>771.4</ele>
        <time>2016-07-29T09:23:15Z</time>
      </trkpt>
      <trkpt lat="47.45122" lon="7.46121">
        <ele>770.1</ele>
        <time>2016-07-29T09:23:17Z</time>
      </trkpt>
      <trkpt lat="47.45118" lon="7.461">
        <ele>774.3</ele>
        <time>2016-07-29T09:23:57Z</time>
      </trkpt>
      <trkpt lat="47.45113" lon="7.46098">
        <ele>775.2</ele>
        <time>2016-07-29T09:24:22Z</time>
      </trkpt>
      <trkpt lat="47.45113" lon="7.461">
        <ele>775.9</ele>
        <time>2016-07-29T09:24:41Z</time>
      </trkpt>
      <trkpt lat="47.45118" lon="7.46101">
        <ele>776</ele>
        <time>2016-07-29T09:24:45Z</time>
      </trkpt>
      <trkpt lat="47.45119" lon="7.46112">
        <ele>776.8</ele>
        <time>2016-07-29T09:25:08Z</time>
      </trkpt>
      <trkpt lat="47.45124" lon="7.46114">
        <ele>785</ele>
        <time>2016-07-29T09:25:21Z</time>
      </trkpt>
      <trkpt lat="47.45119" lon="7.46094">
        <ele>783.1</ele>
        <time>2016-07-29T09:25:42Z</time>
      </trkpt>
      <trkpt lat="47.45117" lon="7.46077">
        <ele>781.2</ele>
        <time>2016-07-29T09:25:51Z</time>
      </trkpt>
      <trkpt lat="47.45124" lon="7.46059">
        <ele>782.6</ele>
        <time>2016-07-29T09:25:59Z</time>
      </trkpt>
      <trkpt lat="47.45115" lon="7.46042">
        <ele>779.6</ele>
        <time>2016-07-29T09:26:11Z</time>
      </trkpt>
      <trkpt lat="47.45106" lon="7.46026">
        <ele>777.4</ele>
        <time>2016-07-29T09:26:23Z</time>
      </trkpt>
      <trkpt lat="47.45099" lon="7.46008">
        <ele>776.1</ele>
        <time>2016-07-29T09:26:34Z</time>
      </trkpt>
      <trkpt lat="47.45099" lon="7.45987">
        <ele>775.5</ele>
        <time>2016-07-29T09:26:42Z</time>
      </trkpt>
      <trkpt lat="47.45095" lon="7.45963">
        <ele>774</ele>
        <time>2016-07-29T09:26:53Z</time>
      </trkpt>
      <trkpt lat="47.45094" lon="7.45942">
        <ele>774.5</ele>
        <time>2016-07-29T09:27:03Z</time>
      </trkpt>
      <trkpt lat="47.45087" lon="7.45923">
        <ele>771</ele>
        <time>2016-07-29T09:27:13Z</time>
      </trkpt>
      <trkpt lat="47.45088" lon="7.45902">
        <ele>764.5</ele>
        <time>2016-07-29T09:27:23Z</time>
      </trkpt>
      <trkpt lat="47.45087" lon="7.45893">
        <ele>765.8</ele>
        <time>2016-07-29T09:27:30Z</time>
      </trkpt>
      <trkpt lat="47.45073" lon="7.45892">
        <ele>759.6</ele>
        <time>2016-07-29T09:27:37Z</time>
      </trkpt>
      <trkpt lat="47.4506" lon="7.45881">
        <ele>750.6</ele>
        <time>2016-07-29T09:27:49Z</time>
      </trkpt>
      <trkpt lat="47.45055" lon="7.45883">
        <ele>750.6</ele>
        <time>2016-07-29T09:28:12Z</time>
      </trkpt>
      <trkpt lat="47.45054" lon="7.45869">
        <ele>759.3</ele>
        <time>2016-07-29T09:28:26Z</time>
      </trkpt>
      <trkpt lat="47.45046" lon="7.45858">
        <ele>763.5</ele>
        <time>2016-07-29T09:28:33Z</time>
      </trkpt>
      <trkpt lat="47.45048" lon="7.45847">
        <ele>767.5</ele>
        <time>2016-07-29T09:28:42Z</time>
      </trkpt>
      <trkpt lat="47.45036" lon="7.45836">
        <ele>764.2</ele>
        <time>2016-07-29T09:28:48Z</time>
      </trkpt>
      <trkpt lat="47.45026" lon="7.45823">
        <ele>762</ele>
        <time>2016-07-29T09:28:55Z</time>
      </trkpt>
      <trkpt lat="47.45018" lon="7.45806">
        <ele>762.3</ele>
        <time>2016-07-29T09:29:05Z</time>
      </trkpt>
      <trkpt lat="47.45009" lon="7.45803">
        <ele>763.4</ele>
        <time>2016-07-29T09:29:10Z</time>
      </trkpt>
      <trkpt lat="47.45003" lon="7.45784">
        <ele>767</ele>
        <time>2016-07-29T09:29:20Z</time>
      </trkpt>
      <trkpt lat="47.44996" lon="7.45767">
        <ele>762.8</ele>
        <time>2016-07-29T09:29:31Z</time>
      </trkpt>
      <trkpt lat="47.44987" lon="7.45753">
        <ele>762.4</ele>
        <time>2016-07-29T09:29:40Z</time>
      </trkpt>
      <trkpt lat="47.44977" lon="7.45738">
        <ele>762</ele>
        <time>2016-07-29T09:29:51Z</time>
      </trkpt>
      <trkpt lat="47.4497" lon="7.4572">
        <ele>761.7</ele>
        <time>2016-07-29T09:30:00Z</time>
      </trkpt>
      <trkpt lat="47.44959" lon="7.45705">
        <ele>761.3</ele>
        <time>2016-07-29T09:30:08Z</time>
      </trkpt>
      <trkpt lat="47.44954" lon="7.45684">
        <ele>760.9</ele>
        <time>2016-07-29T09:30:19Z</time>
      </trkpt>
      <trkpt lat="47.44946" lon="7.45666">
        <ele>760.5</ele>
        <time>2016-07-29T09:30:29Z</time>
      </trkpt>
      <trkpt lat="47.44937" lon="7.45648">
        <ele>760</ele>
        <time>2016-07-29T09:30:42Z</time>
      </trkpt>
      <trkpt lat="47.44926" lon="7.45636">
        <ele>765</ele>
        <time>2016-07-29T09:30:49Z</time>
      </trkpt>
      <trkpt lat="47.4492" lon="7.45617">
        <ele>768</ele>
        <time>2016-07-29T09:31:02Z</time>
      </trkpt>
      <trkpt lat="47.44919" lon="7.45596">
        <ele>769.8</ele>
        <time>2016-07-29T09:31:10Z</time>
      </trkpt>
      <trkpt lat="47.44919" lon="7.45581">
        <ele>769.2</ele>
        <time>2016-07-29T09:31:17Z</time>
      </trkpt>
      <trkpt lat="47.44916" lon="7.4557">
        <ele>768.6</ele>
        <time>2016-07-29T09:31:21Z</time>
      </trkpt>
      <trkpt lat="47.44923" lon="7.45553">
        <ele>767.3</ele>
        <time>2016-07-29T09:31:31Z</time>
      </trkpt>
      <trkpt lat="47.4492" lon="7.45533">
        <ele>763</ele>
        <time>2016-07-29T09:31:41Z</time>
      </trkpt>
      <trkpt lat="47.44923" lon="7.45513">
        <ele>759.7</ele>
        <time>2016-07-29T09:31:47Z</time>
      </trkpt>
      <trkpt lat="47.44926" lon="7.45494">
        <ele>760.4</ele>
        <time>2016-07-29T09:31:59Z</time>
      </trkpt>
      <trkpt lat="47.44923" lon="7.45474">
        <ele>762.4</ele>
        <time>2016-07-29T09:32:11Z</time>
      </trkpt>
      <trkpt lat="47.44931" lon="7.45456">
        <ele>764.6</ele>
        <time>2016-07-29T09:32:21Z</time>
      </trkpt>
      <trkpt lat="47.44932" lon="7.45451">
        <ele>765.6</ele>
        <time>2016-07-29T09:32:25Z</time>
      </trkpt>
      <trkpt lat="47.44925" lon="7.45433">
        <ele>763.4</ele>
        <time>2016-07-29T09:32:36Z</time>
      </trkpt>
      <trkpt lat="47.44922" lon="7.45424">
        <ele>759</ele>
        <time>2016-07-29T09:32:42Z</time>
      </trkpt>
      <trkpt lat="47.44928" lon="7.45405">
        <ele>760.6</ele>
        <time>2016-07-29T09:32:51Z</time>
      </trkpt>
      <trkpt lat="47.44929" lon="7.45382">
        <ele>765.3</ele>
        <time>2016-07-29T09:33:00Z</time>
      </trkpt>
      <trkpt lat="47.44931" lon="7.45361">
        <ele>768.3</ele>
        <time>2016-07-29T09:33:09Z</time>
      </trkpt>
      <trkpt lat="47.44932" lon="7.45353">
        <ele>770</ele>
        <time>2016-07-29T09:33:14Z</time>
      </trkpt>
      <trkpt lat="47.44924" lon="7.45337">
        <ele>769.9</ele>
        <time>2016-07-29T09:33:24Z</time>
      </trkpt>
      <trkpt lat="47.44924" lon="7.45324">
        <ele>771.4</ele>
        <time>2016-07-29T09:33:30Z</time>
      </trkpt>
      <trkpt lat="47.44934" lon="7.45309">
        <ele>771.8</ele>
        <time>2016-07-29T09:33:39Z</time>
      </trkpt>
      <trkpt lat="47.44932" lon="7.45288">
        <ele>774.1</ele>
        <time>2016-07-29T09:33:51Z</time>
      </trkpt>
      <trkpt lat="47.44937" lon="7.45272">
        <ele>776.7</ele>
        <time>2016-07-29T09:34:02Z</time>
      </trkpt>
      <trkpt lat="47.44933" lon="7.45252">
        <ele>779.7</ele>
        <time>2016-07-29T09:34:15Z</time>
      </trkpt>
      <trkpt lat="47.44924" lon="7.45235">
        <ele>784.5</ele>
        <time>2016-07-29T09:34:23Z</time>
      </trkpt>
      <trkpt lat="47.44923" lon="7.45227">
        <ele>785.8</ele>
        <time>2016-07-29T09:34:27Z</time>
      </trkpt>
      <trkpt lat="47.44934" lon="7.45214">
        <ele>787.5</ele>
        <time>2016-07-29T09:34:34Z</time>
      </trkpt>
      <trkpt lat="47.44939" lon="7.45194">
        <ele>784.4</ele>
        <time>2016-07-29T09:34:41Z</time>
      </trkpt>
      <trkpt lat="47.44939" lon="7.45173">
        <ele>783.3</ele>
        <time>2016-07-29T09:34:52Z</time>
      </trkpt>
      <trkpt lat="47.44942" lon="7.45152">
        <ele>786.2</ele>
        <time>2016-07-29T09:35:03Z</time>
      </trkpt>
      <trkpt lat="47.44938" lon="7.45131">
        <ele>784</ele>
        <time>2016-07-29T09:35:17Z</time>
      </trkpt>
      <trkpt lat="47.44936" lon="7.45127">
        <ele>777.7</ele>
        <time>2016-07-29T09:35:23Z</time>
      </trkpt>
      <trkpt lat="47.44923" lon="7.45137">
        <ele>766.3</ele>
        <time>2016-07-29T09:35:45Z</time>
      </trkpt>
      <trkpt lat="47.44933" lon="7.45122">
        <ele>763</ele>
        <time>2016-07-29T09:35:52Z</time>
      </trkpt>
      <trkpt lat="47.4494" lon="7.45103">
        <ele>771.1</ele>
        <time>2016-07-29T09:36:39Z</time>
      </trkpt>
      <trkpt lat="47.44948" lon="7.45086">
        <ele>771.6</ele>
        <time>2016-07-29T09:36:48Z</time>
      </trkpt>
      <trkpt lat="47.44949" lon="7.45066">
        <ele>772.5</ele>
        <time>2016-07-29T09:36:57Z</time>
      </trkpt>
      <trkpt lat="47.44949" lon="7.45045">
        <ele>778</ele>
        <time>2016-07-29T09:37:09Z</time>
      </trkpt>
      <trkpt lat="47.44944" lon="7.45026">
        <ele>776.8</ele>
        <time>2016-07-29T09:37:20Z</time>
      </trkpt>
      <trkpt lat="47.44944" lon="7.45006">
        <ele>776.8</ele>
        <time>2016-07-29T09:37:30Z</time>
      </trkpt>
      <trkpt lat="47.44945" lon="7.44984">
        <ele>777.4</ele>
        <time>2016-07-29T09:37:41Z</time>
      </trkpt>
      <trkpt lat="47.44946" lon="7.44963">
        <ele>779.4</ele>
        <time>2016-07-29T09:37:51Z</time>
      </trkpt>
      <trkpt lat="47.44934" lon="7.44944">
        <ele>776.3</ele>
        <time>2016-07-29T09:37:58Z</time>
      </trkpt>
      <trkpt lat="47.44941" lon="7.44928">
        <ele>774.4</ele>
        <time>2016-07-29T09:38:08Z</time>
      </trkpt>
      <trkpt lat="47.4494" lon="7.44917">
        <ele>774.5</ele>
        <time>2016-07-29T09:38:13Z</time>
      </trkpt>
      <trkpt lat="47.44943" lon="7.44897">
        <ele>777.3</ele>
        <time>2016-07-29T09:38:28Z</time>
      </trkpt>
      <trkpt lat="47.44948" lon="7.44877">
        <ele>783.3</ele>
        <time>2016-07-29T09:38:42Z</time>
      </trkpt>
      <trkpt lat="47.44949" lon="7.44854">
        <ele>783.8</ele>
        <time>2016-07-29T09:38:51Z</time>
      </trkpt>
      <trkpt lat="47.44945" lon="7.44833">
        <ele>784.1</ele>
        <time>2016-07-29T09:39:02Z</time>
      </trkpt>
      <trkpt lat="47.44947" lon="7.44812">
        <ele>792.4</ele>
        <time>2016-07-29T09:39:21Z</time>
      </trkpt>
      <trkpt lat="47.44944" lon="7.44791">
        <ele>794.2</ele>
        <time>2016-07-29T09:39:33Z</time>
      </trkpt>
      <trkpt lat="47.44941" lon="7.44769">
        <ele>794.4</ele>
        <time>2016-07-29T09:39:42Z</time>
      </trkpt>
      <trkpt lat="47.44947" lon="7.44751">
        <ele>794.9</ele>
        <time>2016-07-29T09:39:51Z</time>
      </trkpt>
      <trkpt lat="47.44947" lon="7.44729">
        <ele>795.4</ele>
        <time>2016-07-29T09:40:00Z</time>
      </trkpt>
      <trkpt lat="47.44942" lon="7.4471">
        <ele>795.9</ele>
        <time>2016-07-29T09:40:10Z</time>
      </trkpt>
      <trkpt lat="47.44938" lon="7.44692">
        <ele>799.1</ele>
        <time>2016-07-29T09:40:24Z</time>
      </trkpt>
      <trkpt lat="47.44931" lon="7.44684">
        <ele>800.6</ele>
        <time>2016-07-29T09:40:34Z</time>
      </trkpt>
      <trkpt lat="47.4493" lon="7.44661">
        <ele>802.1</ele>
        <time>2016-07-29T09:40:45Z</time>
      </trkpt>
      <trkpt lat="47.44928" lon="7.44641">
        <ele>803</ele>
        <time>2016-07-29T09:40:53Z</time>
      </trkpt>
      <trkpt lat="47.44919" lon="7.44625">
        <ele>801.6</ele>
        <time>2016-07-29T09:40:59Z</time>
      </trkpt>
      <trkpt lat="47.44912" lon="7.44606">
        <ele>795.4</ele>
        <time>2016-07-29T09:41:11Z</time>
      </trkpt>
      <trkpt lat="47.44901" lon="7.44594">
        <ele>797</ele>
        <time>2016-07-29T09:41:20Z</time>
      </trkpt>
      <trkpt lat="47.44897" lon="7.44574">
        <ele>799.1</ele>
        <time>2016-07-29T09:41:32Z</time>
      </trkpt>
      <trkpt lat="47.44893" lon="7.44553">
        <ele>796.3</ele>
        <time>2016-07-29T09:41:43Z</time>
      </trkpt>
      <trkpt lat="47.4489" lon="7.44533">
        <ele>799.3</ele>
        <time>2016-07-29T09:41:56Z</time>
      </trkpt>
      <trkpt lat="47.44893" lon="7.4451">
        <ele>800.5</ele>
        <time>2016-07-29T09:42:07Z</time>
      </trkpt>
      <trkpt lat="47.44882" lon="7.44493">
        <ele>801.5</ele>
        <time>2016-07-29T09:42:16Z</time>
      </trkpt>
      <trkpt lat="47.44872" lon="7.44478">
        <ele>802.7</ele>
        <time>2016-07-29T09:42:25Z</time>
      </trkpt>
      <trkpt lat="47.4487" lon="7.44457">
        <ele>804.7</ele>
        <time>2016-07-29T09:42:37Z</time>
      </trkpt>
      <trkpt lat="47.44868" lon="7.44436">
        <ele>807.2</ele>
        <time>2016-07-29T09:42:47Z</time>
      </trkpt>
      <trkpt lat="47.44857" lon="7.44425">
        <ele>807.1</ele>
        <time>2016-07-29T09:42:57Z</time>
      </trkpt>
      <trkpt lat="47.44848" lon="7.44408">
        <ele>807.5</ele>
        <time>2016-07-29T09:43:09Z</time>
      </trkpt>
      <trkpt lat="47.44843" lon="7.44388">
        <ele>808.3</ele>
        <time>2016-07-29T09:43:21Z</time>
      </trkpt>
      <trkpt lat="47.44832" lon="7.44377">
        <ele>802.4</ele>
        <time>2016-07-29T09:43:27Z</time>
      </trkpt>
      <trkpt lat="47.44831" lon="7.44356">
        <ele>800</ele>
        <time>2016-07-29T09:43:37Z</time>
      </trkpt>
      <trkpt lat="47.44825" lon="7.44337">
        <ele>796.1</ele>
        <time>2016-07-29T09:43:50Z</time>
      </trkpt>
      <trkpt lat="47.44826" lon="7.44332">
        <ele>793.2</ele>
        <time>2016-07-29T09:43:54Z</time>
      </trkpt>
      <trkpt lat="47.44818" lon="7.44316">
        <ele>792.6</ele>
        <time>2016-07-29T09:44:01Z</time>
      </trkpt>
      <trkpt lat="47.44811" lon="7.44297">
        <ele>798.3</ele>
        <time>2016-07-29T09:44:10Z</time>
      </trkpt>
      <trkpt lat="47.44807" lon="7.44278">
        <ele>799.2</ele>
        <time>2016-07-29T09:44:18Z</time>
      </trkpt>
      <trkpt lat="47.44803" lon="7.44258">
        <ele>798.8</ele>
        <time>2016-07-29T09:44:30Z</time>
      </trkpt>
      <trkpt lat="47.44797" lon="7.44238">
        <ele>796.7</ele>
        <time>2016-07-29T09:44:39Z</time>
      </trkpt>
      <trkpt lat="47.44786" lon="7.44226">
        <ele>794.1</ele>
        <time>2016-07-29T09:44:48Z</time>
      </trkpt>
      <trkpt lat="47.44778" lon="7.4421">
        <ele>790.6</ele>
        <time>2016-07-29T09:44:59Z</time>
      </trkpt>
      <trkpt lat="47.44769" lon="7.44194">
        <ele>787.3</ele>
        <time>2016-07-29T09:45:09Z</time>
      </trkpt>
      <trkpt lat="47.44765" lon="7.44173">
        <ele>791.4</ele>
        <time>2016-07-29T09:45:23Z</time>
      </trkpt>
      <trkpt lat="47.44761" lon="7.44153">
        <ele>789.3</ele>
        <time>2016-07-29T09:45:32Z</time>
      </trkpt>
      <trkpt lat="47.44758" lon="7.44133">
        <ele>795.3</ele>
        <time>2016-07-29T09:45:46Z</time>
      </trkpt>
      <trkpt lat="47.44749" lon="7.44117">
        <ele>801</ele>
        <time>2016-07-29T09:46:00Z</time>
      </trkpt>
      <trkpt lat="47.44738" lon="7.44104">
        <ele>802.7</ele>
        <time>2016-07-29T09:46:11Z</time>
      </trkpt>
      <trkpt lat="47.44736" lon="7.44083">
        <ele>805</ele>
        <time>2016-07-29T09:46:23Z</time>
      </trkpt>
      <trkpt lat="47.44732" lon="7.44063">
        <ele>811.1</ele>
        <time>2016-07-29T09:46:35Z</time>
      </trkpt>
      <trkpt lat="47.44725" lon="7.44046">
        <ele>814.2</ele>
        <time>2016-07-29T09:46:43Z</time>
      </trkpt>
      <trkpt lat="47.44714" lon="7.44029">
        <ele>815</ele>
        <time>2016-07-29T09:46:59Z</time>
      </trkpt>
      <trkpt lat="47.44717" lon="7.44008">
        <ele>818</ele>
        <time>2016-07-29T09:47:16Z</time>
      </trkpt>
      <trkpt lat="47.44705" lon="7.44017">
        <ele>821.1</ele>
        <time>2016-07-29T09:47:48Z</time>
      </trkpt>
      <trkpt lat="47.44702" lon="7.44007">
        <ele>823.4</ele>
        <time>2016-07-29T09:48:18Z</time>
      </trkpt>
      <trkpt lat="47.44711" lon="7.44006">
        <ele>814.2</ele>
        <time>2016-07-29T09:48:47Z</time>
      </trkpt>
      <trkpt lat="47.44701" lon="7.44002">
        <ele>823.7</ele>
        <time>2016-07-29T09:49:18Z</time>
      </trkpt>
      <trkpt lat="47.44696" lon="7.44017">
        <ele>817</ele>
        <time>2016-07-29T09:49:56Z</time>
      </trkpt>
      <trkpt lat="47.44702" lon="7.44023">
        <ele>814.6</ele>
        <time>2016-07-29T09:50:02Z</time>
      </trkpt>
      <trkpt lat="47.44713" lon="7.44012">
        <ele>818.1</ele>
        <time>2016-07-29T09:50:14Z</time>
      </trkpt>
      <trkpt lat="47.44716" lon="7.44008">
        <ele>819.3</ele>
        <time>2016-07-29T09:50:16Z</time>
      </trkpt>
      <trkpt lat="47.44703" lon="7.44002">
        <ele>817.1</ele>
        <time>2016-07-29T09:50:33Z</time>
      </trkpt>
      <trkpt lat="47.44701" lon="7.43981">
        <ele>817.6</ele>
        <time>2016-07-29T09:50:50Z</time>
      </trkpt>
      <trkpt lat="47.44699" lon="7.43961">
        <ele>819.4</ele>
        <time>2016-07-29T09:51:03Z</time>
      </trkpt>
      <trkpt lat="47.44689" lon="7.43945">
        <ele>818.9</ele>
        <time>2016-07-29T09:51:18Z</time>
      </trkpt>
      <trkpt lat="47.44681" lon="7.43929">
        <ele>817.8</ele>
        <time>2016-07-29T09:51:28Z</time>
      </trkpt>
      <trkpt lat="47.44672" lon="7.43911">
        <ele>816.5</ele>
        <time>2016-07-29T09:51:41Z</time>
      </trkpt>
      <trkpt lat="47.44666" lon="7.43892">
        <ele>815.2</ele>
        <time>2016-07-29T09:51:50Z</time>
      </trkpt>
      <trkpt lat="47.44659" lon="7.43877">
        <ele>813.4</ele>
        <time>2016-07-29T09:52:00Z</time>
      </trkpt>
      <trkpt lat="47.4466" lon="7.43856">
        <ele>812.4</ele>
        <time>2016-07-29T09:52:05Z</time>
      </trkpt>
      <trkpt lat="47.44663" lon="7.43848">
        <ele>814.6</ele>
        <time>2016-07-29T09:52:11Z</time>
      </trkpt>
      <trkpt lat="47.44654" lon="7.43832">
        <ele>817.2</ele>
        <time>2016-07-29T09:52:21Z</time>
      </trkpt>
      <trkpt lat="47.44645" lon="7.43818">
        <ele>819</ele>
        <time>2016-07-29T09:52:33Z</time>
      </trkpt>
      <trkpt lat="47.44639" lon="7.43799">
        <ele>815.7</ele>
        <time>2016-07-29T09:52:41Z</time>
      </trkpt>
      <trkpt lat="47.44634" lon="7.43779">
        <ele>817.8</ele>
        <time>2016-07-29T09:52:52Z</time>
      </trkpt>
      <trkpt lat="47.44622" lon="7.43766">
        <ele>816</ele>
        <time>2016-07-29T09:53:02Z</time>
      </trkpt>
      <trkpt lat="47.44616" lon="7.43746">
        <ele>818.6</ele>
        <time>2016-07-29T09:53:13Z</time>
      </trkpt>
      <trkpt lat="47.44606" lon="7.43731">
        <ele>820.8</ele>
        <time>2016-07-29T09:53:24Z</time>
      </trkpt>
      <trkpt lat="47.446" lon="7.43711">
        <ele>818.7</ele>
        <time>2016-07-29T09:53:35Z</time>
      </trkpt>
      <trkpt lat="47.44587" lon="7.43693">
        <ele>817.7</ele>
        <time>2016-07-29T09:53:40Z</time>
      </trkpt>
      <trkpt lat="47.4458" lon="7.43675">
        <ele>816.3</ele>
        <time>2016-07-29T09:53:51Z</time>
      </trkpt>
      <trkpt lat="47.44576" lon="7.43654">
        <ele>818.8</ele>
        <time>2016-07-29T09:54:05Z</time>
      </trkpt>
      <trkpt lat="47.44575" lon="7.43643">
        <ele>819.6</ele>
        <time>2016-07-29T09:54:10Z</time>
      </trkpt>
      <trkpt lat="47.44575" lon="7.43632">
        <ele>815.8</ele>
        <time>2016-07-29T09:54:18Z</time>
      </trkpt>
      <trkpt lat="47.44566" lon="7.43617">
        <ele>813.8</ele>
        <time>2016-07-29T09:54:27Z</time>
      </trkpt>
      <trkpt lat="47.44555" lon="7.43605">
        <ele>813.7</ele>
        <time>2016-07-29T09:54:35Z</time>
      </trkpt>
      <trkpt lat="47.44544" lon="7.43588">
        <ele>813.2</ele>
        <time>2016-07-29T09:54:45Z</time>
      </trkpt>
      <trkpt lat="47.44537" lon="7.43569">
        <ele>812.7</ele>
        <time>2016-07-29T09:54:57Z</time>
      </trkpt>
      <trkpt lat="47.44533" lon="7.4355">
        <ele>812.1</ele>
        <time>2016-07-29T09:55:09Z</time>
      </trkpt>
      <trkpt lat="47.44532" lon="7.43529">
        <ele>811.2</ele>
        <time>2016-07-29T09:55:20Z</time>
      </trkpt>
      <trkpt lat="47.44526" lon="7.4351">
        <ele>811.8</ele>
        <time>2016-07-29T09:55:28Z</time>
      </trkpt>
      <trkpt lat="47.4452" lon="7.43491">
        <ele>812.7</ele>
        <time>2016-07-29T09:55:40Z</time>
      </trkpt>
      <trkpt lat="47.44515" lon="7.43472">
        <ele>813.6</ele>
        <time>2016-07-29T09:55:52Z</time>
      </trkpt>
      <trkpt lat="47.44511" lon="7.43452">
        <ele>810.7</ele>
        <time>2016-07-29T09:56:02Z</time>
      </trkpt>
      <trkpt lat="47.44507" lon="7.43433">
        <ele>808.4</ele>
        <time>2016-07-29T09:56:16Z</time>
      </trkpt>
      <trkpt lat="47.44504" lon="7.43412">
        <ele>812.7</ele>
        <time>2016-07-29T09:57:00Z</time>
      </trkpt>
      <trkpt lat="47.445" lon="7.43392">
        <ele>813.5</ele>
        <time>2016-07-29T09:57:13Z</time>
      </trkpt>
      <trkpt lat="47.44496" lon="7.43373">
        <ele>813.5</ele>
        <time>2016-07-29T09:57:28Z</time>
      </trkpt>
      <trkpt lat="47.44492" lon="7.43353">
        <ele>812.2</ele>
        <time>2016-07-29T09:57:45Z</time>
      </trkpt>
      <trkpt lat="47.4449" lon="7.4334">
        <ele>811.1</ele>
        <time>2016-07-29T09:57:59Z</time>
      </trkpt>
      <trkpt lat="47.44491" lon="7.43338">
        <ele>812.7</ele>
        <time>2016-07-29T09:58:20Z</time>
      </trkpt>
      <trkpt lat="47.44488" lon="7.43334">
        <ele>813.2</ele>
        <time>2016-07-29T09:58:26Z</time>
      </trkpt>
      <trkpt lat="47.44489" lon="7.43328">
        <ele>813.7</ele>
        <time>2016-07-29T09:58:31Z</time>
      </trkpt>
      <trkpt lat="47.44483" lon="7.43327">
        <ele>813.3</ele>
        <time>2016-07-29T09:58:39Z</time>
      </trkpt>
      <trkpt lat="47.44483" lon="7.43303">
        <ele>811.9</ele>
        <time>2016-07-29T09:58:47Z</time>
      </trkpt>
      <trkpt lat="47.44478" lon="7.43283">
        <ele>810.1</ele>
        <time>2016-07-29T09:59:00Z</time>
      </trkpt>
      <trkpt lat="47.44477" lon="7.43261">
        <ele>809</ele>
        <time>2016-07-29T09:59:10Z</time>
      </trkpt>
      <trkpt lat="47.44473" lon="7.43242">
        <ele>808.6</ele>
        <time>2016-07-29T09:59:24Z</time>
      </trkpt>
      <trkpt lat="47.44471" lon="7.43219">
        <ele>809.7</ele>
        <time>2016-07-29T09:59:33Z</time>
      </trkpt>
      <trkpt lat="47.44467" lon="7.43199">
        <ele>811</ele>
        <time>2016-07-29T09:59:44Z</time>
      </trkpt>
      <trkpt lat="47.44462" lon="7.43178">
        <ele>812.7</ele>
        <time>2016-07-29T09:59:58Z</time>
      </trkpt>
      <trkpt lat="47.44452" lon="7.43159">
        <ele>814</ele>
        <time>2016-07-29T10:00:09Z</time>
      </trkpt>
      <trkpt lat="47.4445" lon="7.43138">
        <ele>809.3</ele>
        <time>2016-07-29T10:00:17Z</time>
      </trkpt>
      <trkpt lat="47.44448" lon="7.43113">
        <ele>808.6</ele>
        <time>2016-07-29T10:00:27Z</time>
      </trkpt>
      <trkpt lat="47.44444" lon="7.43093">
        <ele>811.8</ele>
        <time>2016-07-29T10:00:41Z</time>
      </trkpt>
      <trkpt lat="47.44436" lon="7.43076">
        <ele>809.6</ele>
        <time>2016-07-29T10:00:51Z</time>
      </trkpt>
      <trkpt lat="47.44435" lon="7.43057">
        <ele>810.9</ele>
        <time>2016-07-29T10:01:00Z</time>
      </trkpt>
      <trkpt lat="47.44431" lon="7.43037">
        <ele>813</ele>
        <time>2016-07-29T10:01:14Z</time>
      </trkpt>
      <trkpt lat="47.44431" lon="7.43017">
        <ele>808.6</ele>
        <time>2016-07-29T10:01:29Z</time>
      </trkpt>
      <trkpt lat="47.44425" lon="7.42997">
        <ele>811.6</ele>
        <time>2016-07-29T10:01:40Z</time>
      </trkpt>
      <trkpt lat="47.44416" lon="7.4298">
        <ele>812.6</ele>
        <time>2016-07-29T10:01:51Z</time>
      </trkpt>
      <trkpt lat="47.44411" lon="7.4296">
        <ele>810.8</ele>
        <time>2016-07-29T10:02:03Z</time>
      </trkpt>
      <trkpt lat="47.4441" lon="7.42938">
        <ele>809.3</ele>
        <time>2016-07-29T10:02:13Z</time>
      </trkpt>
      <trkpt lat="47.44404" lon="7.42919">
        <ele>808.9</ele>
        <time>2016-07-29T10:02:24Z</time>
      </trkpt>
      <trkpt lat="47.44399" lon="7.42894">
        <ele>809.2</ele>
        <time>2016-07-29T10:02:38Z</time>
      </trkpt>
      <trkpt lat="47.444" lon="7.42879">
        <ele>807.3</ele>
        <time>2016-07-29T10:02:49Z</time>
      </trkpt>
      <trkpt lat="47.44402" lon="7.42874">
        <ele>805.4</ele>
        <time>2016-07-29T10:02:58Z</time>
      </trkpt>
      <trkpt lat="47.44393" lon="7.42875">
        <ele>801.1</ele>
        <time>2016-07-29T10:03:10Z</time>
      </trkpt>
      <trkpt lat="47.444" lon="7.42855">
        <ele>802.1</ele>
        <time>2016-07-29T10:03:19Z</time>
      </trkpt>
      <trkpt lat="47.44391" lon="7.42835">
        <ele>807.2</ele>
        <time>2016-07-29T10:03:35Z</time>
      </trkpt>
      <trkpt lat="47.44381" lon="7.42821">
        <ele>808.8</ele>
        <time>2016-07-29T10:03:42Z</time>
      </trkpt>
      <trkpt lat="47.44369" lon="7.42808">
        <ele>806</ele>
        <time>2016-07-29T10:03:52Z</time>
      </trkpt>
      <trkpt lat="47.44365" lon="7.42807">
        <ele>810.6</ele>
        <time>2016-07-29T10:03:59Z</time>
      </trkpt>
      <trkpt lat="47.44356" lon="7.42816">
        <ele>814</ele>
        <time>2016-07-29T10:04:54Z</time>
      </trkpt>
      <trkpt lat="47.44361" lon="7.42817">
        <ele>814.2</ele>
        <time>2016-07-29T10:05:00Z</time>
      </trkpt>
      <trkpt lat="47.44364" lon="7.42796">
        <ele>814.8</ele>
        <time>2016-07-29T10:05:11Z</time>
      </trkpt>
      <trkpt lat="47.44359" lon="7.42778">
        <ele>815.6</ele>
        <time>2016-07-29T10:05:25Z</time>
      </trkpt>
      <trkpt lat="47.44354" lon="7.42759">
        <ele>816.3</ele>
        <time>2016-07-29T10:05:37Z</time>
      </trkpt>
      <trkpt lat="47.44353" lon="7.42738">
        <ele>817</ele>
        <time>2016-07-29T10:05:49Z</time>
      </trkpt>
      <trkpt lat="47.44349" lon="7.42726">
        <ele>817.4</ele>
        <time>2016-07-29T10:05:57Z</time>
      </trkpt>
      <trkpt lat="47.44351" lon="7.42705">
        <ele>818.3</ele>
        <time>2016-07-29T10:06:08Z</time>
      </trkpt>
      <trkpt lat="47.44346" lon="7.42686">
        <ele>820.7</ele>
        <time>2016-07-29T10:06:15Z</time>
      </trkpt>
      <trkpt lat="47.4434" lon="7.42666">
        <ele>820</ele>
        <time>2016-07-29T10:06:24Z</time>
      </trkpt>
      <trkpt lat="47.44344" lon="7.42645">
        <ele>817.5</ele>
        <time>2016-07-29T10:06:31Z</time>
      </trkpt>
      <trkpt lat="47.44349" lon="7.42625">
        <ele>818.5</ele>
        <time>2016-07-29T10:06:46Z</time>
      </trkpt>
      <trkpt lat="47.44345" lon="7.42605">
        <ele>814.6</ele>
        <time>2016-07-29T10:06:54Z</time>
      </trkpt>
      <trkpt lat="47.4435" lon="7.42585">
        <ele>812.8</ele>
        <time>2016-07-29T10:07:04Z</time>
      </trkpt>
      <trkpt lat="47.44359" lon="7.42568">
        <ele>809.9</ele>
        <time>2016-07-29T10:07:20Z</time>
      </trkpt>
      <trkpt lat="47.44365" lon="7.42549">
        <ele>809.3</ele>
        <time>2016-07-29T10:07:28Z</time>
      </trkpt>
      <trkpt lat="47.44366" lon="7.42537">
        <ele>814.5</ele>
        <time>2016-07-29T10:07:43Z</time>
      </trkpt>
      <trkpt lat="47.44364" lon="7.42543">
        <ele>811.7</ele>
        <time>2016-07-29T10:07:54Z</time>
      </trkpt>
      <trkpt lat="47.44365" lon="7.42542">
        <ele>808</ele>
        <time>2016-07-29T10:08:15Z</time>
      </trkpt>
      <trkpt lat="47.44369" lon="7.4255">
        <ele>809</ele>
        <time>2016-07-29T10:08:26Z</time>
      </trkpt>
      <trkpt lat="47.44381" lon="7.42536">
        <ele>810.1</ele>
        <time>2016-07-29T10:08:38Z</time>
      </trkpt>
      <trkpt lat="47.4439" lon="7.42519">
        <ele>811.1</ele>
        <time>2016-07-29T10:08:48Z</time>
      </trkpt>
      <trkpt lat="47.44404" lon="7.42516">
        <ele>814.9</ele>
        <time>2016-07-29T10:09:11Z</time>
      </trkpt>
      <trkpt lat="47.44414" lon="7.42503">
        <ele>810.7</ele>
        <time>2016-07-29T10:09:25Z</time>
      </trkpt>
      <trkpt lat="47.44428" lon="7.42494">
        <ele>808.7</ele>
        <time>2016-07-29T10:09:35Z</time>
      </trkpt>
      <trkpt lat="47.4444" lon="7.42483">
        <ele>807</ele>
        <time>2016-07-29T10:09:45Z</time>
      </trkpt>
      <trkpt lat="47.44446" lon="7.42464">
        <ele>806</ele>
        <time>2016-07-29T10:09:59Z</time>
      </trkpt>
      <trkpt lat="47.4445" lon="7.4244">
        <ele>799.9</ele>
        <time>2016-07-29T10:10:08Z</time>
      </trkpt>
      <trkpt lat="47.44459" lon="7.42427">
        <ele>795</ele>
        <time>2016-07-29T10:10:15Z</time>
      </trkpt>
      <trkpt lat="47.44456" lon="7.42404">
        <ele>792.1</ele>
        <time>2016-07-29T10:10:43Z</time>
      </trkpt>
      <trkpt lat="47.44451" lon="7.42407">
        <ele>795.3</ele>
        <time>2016-07-29T10:10:50Z</time>
      </trkpt>
      <trkpt lat="47.44449" lon="7.42405">
        <ele>790.7</ele>
        <time>2016-07-29T10:10:59Z</time>
      </trkpt>
      <trkpt lat="47.44451" lon="7.42406">
        <ele>788</ele>
        <time>2016-07-29T10:11:06Z</time>
      </trkpt>
      <trkpt lat="47.44452" lon="7.42402">
        <ele>782</ele>
        <time>2016-07-29T10:11:19Z</time>
      </trkpt>
      <trkpt lat="47.44448" lon="7.42383">
        <ele>791.5</ele>
        <time>2016-07-29T10:11:45Z</time>
      </trkpt>
      <trkpt lat="47.44454" lon="7.42365">
        <ele>797.6</ele>
        <time>2016-07-29T10:11:58Z</time>
      </trkpt>
      <trkpt lat="47.44454" lon="7.42347">
        <ele>796.1</ele>
        <time>2016-07-29T10:12:12Z</time>
      </trkpt>
      <trkpt lat="47.4445" lon="7.42327">
        <ele>792.9</ele>
        <time>2016-07-29T10:12:23Z</time>
      </trkpt>
      <trkpt lat="47.44447" lon="7.42321">
        <ele>792.3</ele>
        <time>2016-07-29T10:12:25Z</time>
      </trkpt>
      <trkpt lat="47.44456" lon="7.42306">
        <ele>789</ele>
        <time>2016-07-29T10:12:32Z</time>
      </trkpt>
      <trkpt lat="47.44459" lon="7.42308">
        <ele>788.5</ele>
        <time>2016-07-29T10:12:37Z</time>
      </trkpt>
      <trkpt lat="47.44455" lon="7.42288">
        <ele>785.6</ele>
        <time>2016-07-29T10:12:57Z</time>
      </trkpt>
      <trkpt lat="47.44461" lon="7.42269">
        <ele>782.3</ele>
        <time>2016-07-29T10:13:09Z</time>
      </trkpt>
      <trkpt lat="47.44455" lon="7.42251">
        <ele>792</ele>
        <time>2016-07-29T10:13:18Z</time>
      </trkpt>
      <trkpt lat="47.44459" lon="7.42237">
        <ele>791.1</ele>
        <time>2016-07-29T10:13:32Z</time>
      </trkpt>
      <trkpt lat="47.44459" lon="7.42228">
        <ele>787.8</ele>
        <time>2016-07-29T10:13:43Z</time>
      </trkpt>
      <trkpt lat="47.44459" lon="7.42237">
        <ele>787.8</ele>
        <time>2016-07-29T10:13:54Z</time>
      </trkpt>
      <trkpt lat="47.44472" lon="7.42245">
        <ele>777.9</ele>
        <time>2016-07-29T10:14:06Z</time>
      </trkpt>
      <trkpt lat="47.44482" lon="7.42232">
        <ele>775.8</ele>
        <time>2016-07-29T10:14:16Z</time>
      </trkpt>
      <trkpt lat="47.44493" lon="7.42217">
        <ele>775.3</ele>
        <time>2016-07-29T10:14:26Z</time>
      </trkpt>
      <trkpt lat="47.44505" lon="7.42206">
        <ele>779.5</ele>
        <time>2016-07-29T10:14:47Z</time>
      </trkpt>
      <trkpt lat="47.44516" lon="7.42195">
        <ele>782.7</ele>
        <time>2016-07-29T10:15:01Z</time>
      </trkpt>
      <trkpt lat="47.44529" lon="7.42185">
        <ele>783.7</ele>
        <time>2016-07-29T10:15:15Z</time>
      </trkpt>
      <trkpt lat="47.4454" lon="7.42172">
        <ele>782.4</ele>
        <time>2016-07-29T10:15:32Z</time>
      </trkpt>
      <trkpt lat="47.44554" lon="7.4217">
        <ele>785.5</ele>
        <time>2016-07-29T10:15:47Z</time>
      </trkpt>
      <trkpt lat="47.44567" lon="7.42175">
        <ele>787.7</ele>
        <time>2016-07-29T10:16:02Z</time>
      </trkpt>
      <trkpt lat="47.44582" lon="7.42169">
        <ele>787</ele>
        <time>2016-07-29T10:16:10Z</time>
      </trkpt>
      <trkpt lat="47.44596" lon="7.42167">
        <ele>785.4</ele>
        <time>2016-07-29T10:16:28Z</time>
      </trkpt>
      <trkpt lat="47.4461" lon="7.42165">
        <ele>787.8</ele>
        <time>2016-07-29T10:16:42Z</time>
      </trkpt>
      <trkpt lat="47.44624" lon="7.42162">
        <ele>796.2</ele>
        <time>2016-07-29T10:16:55Z</time>
      </trkpt>
      <trkpt lat="47.44637" lon="7.42166">
        <ele>801.3</ele>
        <time>2016-07-29T10:17:10Z</time>
      </trkpt>
      <trkpt lat="47.44644" lon="7.42172">
        <ele>801</ele>
        <time>2016-07-29T10:17:21Z</time>
      </trkpt>
      <trkpt lat="47.44657" lon="7.42163">
        <ele>801.4</ele>
        <time>2016-07-29T10:17:29Z</time>
      </trkpt>
      <trkpt lat="47.44672" lon="7.42164">
        <ele>807.7</ele>
        <time>2016-07-29T10:17:50Z</time>
      </trkpt>
      <trkpt lat="47.44686" lon="7.42163">
        <ele>803.5</ele>
        <time>2016-07-29T10:18:05Z</time>
      </trkpt>
      <trkpt lat="47.44692" lon="7.42157">
        <ele>802.1</ele>
        <time>2016-07-29T10:18:31Z</time>
      </trkpt>
      <trkpt lat="47.44703" lon="7.42171">
        <ele>804.6</ele>
        <time>2016-07-29T10:19:03Z</time>
      </trkpt>
      <trkpt lat="47.44714" lon="7.42182">
        <ele>803.2</ele>
        <time>2016-07-29T10:19:17Z</time>
      </trkpt>
      <trkpt lat="47.44715" lon="7.42185">
        <ele>805.6</ele>
        <time>2016-07-29T10:19:30Z</time>
      </trkpt>
      <trkpt lat="47.44712" lon="7.42183">
        <ele>804.5</ele>
        <time>2016-07-29T10:19:35Z</time>
      </trkpt>
      <trkpt lat="47.44721" lon="7.42187">
        <ele>799.3</ele>
        <time>2016-07-29T10:19:49Z</time>
      </trkpt>
      <trkpt lat="47.44725" lon="7.42196">
        <ele>801.8</ele>
        <time>2016-07-29T10:20:20Z</time>
      </trkpt>
      <trkpt lat="47.44729" lon="7.42194">
        <ele>802.7</ele>
        <time>2016-07-29T10:20:25Z</time>
      </trkpt>
      <trkpt lat="47.44723" lon="7.42187">
        <ele>801.3</ele>
        <time>2016-07-29T10:21:19Z</time>
      </trkpt>
      <trkpt lat="47.44725" lon="7.42187">
        <ele>801.4</ele>
        <time>2016-07-29T10:21:21Z</time>
      </trkpt>
      <trkpt lat="47.44722" lon="7.42185">
        <ele>801.8</ele>
        <time>2016-07-29T10:21:29Z</time>
      </trkpt>
      <trkpt lat="47.44721" lon="7.42191">
        <ele>802.4</ele>
        <time>2016-07-29T10:21:40Z</time>
      </trkpt>
      <trkpt lat="47.44729" lon="7.42186">
        <ele>799.6</ele>
        <time>2016-07-29T10:22:06Z</time>
      </trkpt>
      <trkpt lat="47.44741" lon="7.42199">
        <ele>796.1</ele>
        <time>2016-07-29T10:22:40Z</time>
      </trkpt>
      <trkpt lat="47.44752" lon="7.42211">
        <ele>794.1</ele>
        <time>2016-07-29T10:22:48Z</time>
      </trkpt>
      <trkpt lat="47.44761" lon="7.42227">
        <ele>792.5</ele>
        <time>2016-07-29T10:22:58Z</time>
      </trkpt>
      <trkpt lat="47.44763" lon="7.42231">
        <ele>791.4</ele>
        <time>2016-07-29T10:23:22Z</time>
      </trkpt>
      <trkpt lat="47.44759" lon="7.42234">
        <ele>791.1</ele>
        <time>2016-07-29T10:23:31Z</time>
      </trkpt>
      <trkpt lat="47.44762" lon="7.42234">
        <ele>790.6</ele>
        <time>2016-07-29T10:23:46Z</time>
      </trkpt>
      <trkpt lat="47.44758" lon="7.4223">
        <ele>791.4</ele>
        <time>2016-07-29T10:23:54Z</time>
      </trkpt>
      <trkpt lat="47.44763" lon="7.42232">
        <ele>792.6</ele>
        <time>2016-07-29T10:24:08Z</time>
      </trkpt>
      <trkpt lat="47.44767" lon="7.42244">
        <ele>792.5</ele>
        <time>2016-07-29T10:24:38Z</time>
      </trkpt>
      <trkpt lat="47.44766" lon="7.42242">
        <ele>787.8</ele>
        <time>2016-07-29T10:25:28Z</time>
      </trkpt>
      <trkpt lat="47.4477" lon="7.42242">
        <ele>787.6</ele>
        <time>2016-07-29T10:25:32Z</time>
      </trkpt>
      <trkpt lat="47.44766" lon="7.42238">
        <ele>791</ele>
        <time>2016-07-29T10:26:29Z</time>
      </trkpt>
      <trkpt lat="47.44779" lon="7.42246">
        <ele>790.5</ele>
        <time>2016-07-29T10:26:49Z</time>
      </trkpt>
      <trkpt lat="47.44791" lon="7.4226">
        <ele>785.2</ele>
        <time>2016-07-29T10:27:05Z</time>
      </trkpt>
      <trkpt lat="47.44798" lon="7.42279">
        <ele>782.5</ele>
        <time>2016-07-29T10:27:24Z</time>
      </trkpt>
      <trkpt lat="47.44808" lon="7.42294">
        <ele>780.4</ele>
        <time>2016-07-29T10:27:36Z</time>
      </trkpt>
      <trkpt lat="47.44819" lon="7.42307">
        <ele>777.7</ele>
        <time>2016-07-29T10:27:41Z</time>
      </trkpt>
      <trkpt lat="47.44829" lon="7.42323">
        <ele>773</ele>
        <time>2016-07-29T10:27:56Z</time>
      </trkpt>
      <trkpt lat="47.4484" lon="7.42334">
        <ele>771.9</ele>
        <time>2016-07-29T10:28:06Z</time>
      </trkpt>
      <trkpt lat="47.44852" lon="7.42345">
        <ele>768</ele>
        <time>2016-07-29T10:28:15Z</time>
      </trkpt>
      <trkpt lat="47.44865" lon="7.42355">
        <ele>768.2</ele>
        <time>2016-07-29T10:28:26Z</time>
      </trkpt>
      <trkpt lat="47.44875" lon="7.4237">
        <ele>770.8</ele>
        <time>2016-07-29T10:28:43Z</time>
      </trkpt>
      <trkpt lat="47.44888" lon="7.4238">
        <ele>768.2</ele>
        <time>2016-07-29T10:28:59Z</time>
      </trkpt>
      <trkpt lat="47.44902" lon="7.42388">
        <ele>765.6</ele>
        <time>2016-07-29T10:29:10Z</time>
      </trkpt>
      <trkpt lat="47.44915" lon="7.42395">
        <ele>761</ele>
        <time>2016-07-29T10:29:26Z</time>
      </trkpt>
      <trkpt lat="47.44927" lon="7.42404">
        <ele>762.6</ele>
        <time>2016-07-29T10:29:43Z</time>
      </trkpt>
      <trkpt lat="47.44938" lon="7.42396">
        <ele>761</ele>
        <time>2016-07-29T10:29:57Z</time>
      </trkpt>
      <trkpt lat="47.4495" lon="7.42407">
        <ele>761.6</ele>
        <time>2016-07-29T10:30:04Z</time>
      </trkpt>
      <trkpt lat="47.44961" lon="7.42419">
        <ele>764</ele>
        <time>2016-07-29T10:30:12Z</time>
      </trkpt>
      <trkpt lat="47.44973" lon="7.42432">
        <ele>762</ele>
        <time>2016-07-29T10:30:23Z</time>
      </trkpt>
      <trkpt lat="47.44987" lon="7.42431">
        <ele>757</ele>
        <time>2016-07-29T10:30:39Z</time>
      </trkpt>
      <trkpt lat="47.44998" lon="7.42417">
        <ele>762</ele>
        <time>2016-07-29T10:30:52Z</time>
      </trkpt>
      <trkpt lat="47.44998" lon="7.42396">
        <ele>766.6</ele>
        <time>2016-07-29T10:31:07Z</time>
      </trkpt>
      <trkpt lat="47.44997" lon="7.42375">
        <ele>769.4</ele>
        <time>2016-07-29T10:31:20Z</time>
      </trkpt>
      <trkpt lat="47.44994" lon="7.42355">
        <ele>769.7</ele>
        <time>2016-07-29T10:31:28Z</time>
      </trkpt>
      <trkpt lat="47.44994" lon="7.42335">
        <ele>763.3</ele>
        <time>2016-07-29T10:31:39Z</time>
      </trkpt>
      <trkpt lat="47.45001" lon="7.42315">
        <ele>758.9</ele>
        <time>2016-07-29T10:31:47Z</time>
      </trkpt>
      <trkpt lat="47.45004" lon="7.42294">
        <ele>757.8</ele>
        <time>2016-07-29T10:31:57Z</time>
      </trkpt>
      <trkpt lat="47.45007" lon="7.42274">
        <ele>757</ele>
        <time>2016-07-29T10:32:09Z</time>
      </trkpt>
      <trkpt lat="47.45015" lon="7.42258">
        <ele>745.4</ele>
        <time>2016-07-29T10:32:24Z</time>
      </trkpt>
      <trkpt lat="47.45024" lon="7.42243">
        <ele>748.7</ele>
        <time>2016-07-29T10:32:31Z</time>
      </trkpt>
      <trkpt lat="47.45038" lon="7.42239">
        <ele>747.4</ele>
        <time>2016-07-29T10:32:42Z</time>
      </trkpt>
      <trkpt lat="47.45052" lon="7.42235">
        <ele>734.3</ele>
        <time>2016-07-29T10:32:54Z</time>
      </trkpt>
      <trkpt lat="47.45064" lon="7.42244">
        <ele>729.5</ele>
        <time>2016-07-29T10:33:02Z</time>
      </trkpt>
      <trkpt lat="47.45074" lon="7.42248">
        <ele>731</ele>
        <time>2016-07-29T10:33:14Z</time>
      </trkpt>
      <trkpt lat="47.45073" lon="7.42254">
        <ele>729.9</ele>
        <time>2016-07-29T10:33:18Z</time>
      </trkpt>
      <trkpt lat="47.4508" lon="7.42271">
        <ele>726.5</ele>
        <time>2016-07-29T10:33:31Z</time>
      </trkpt>
      <trkpt lat="47.45087" lon="7.42288">
        <ele>723.3</ele>
        <time>2016-07-29T10:33:42Z</time>
      </trkpt>
      <trkpt lat="47.45097" lon="7.42302">
        <ele>721</ele>
        <time>2016-07-29T10:33:55Z</time>
      </trkpt>
      <trkpt lat="47.45097" lon="7.42324">
        <ele>713.1</ele>
        <time>2016-07-29T10:34:10Z</time>
      </trkpt>
      <trkpt lat="47.45093" lon="7.42325">
        <ele>709.5</ele>
        <time>2016-07-29T10:34:19Z</time>
      </trkpt>
      <trkpt lat="47.451" lon="7.42346">
        <ele>713</ele>
        <time>2016-07-29T10:34:27Z</time>
      </trkpt>
      <trkpt lat="47.45101" lon="7.42368">
        <ele>714.8</ele>
        <time>2016-07-29T10:34:36Z</time>
      </trkpt>
      <trkpt lat="47.45113" lon="7.42378">
        <ele>716.6</ele>
        <time>2016-07-29T10:34:49Z</time>
      </trkpt>
      <trkpt lat="47.45123" lon="7.42392">
        <ele>712</ele>
        <time>2016-07-29T10:35:07Z</time>
      </trkpt>
      <trkpt lat="47.45132" lon="7.42409">
        <ele>706</ele>
        <time>2016-07-29T10:35:22Z</time>
      </trkpt>
      <trkpt lat="47.45138" lon="7.42426">
        <ele>706</ele>
        <time>2016-07-29T10:35:30Z</time>
      </trkpt>
      <trkpt lat="47.45146" lon="7.42444">
        <ele>700.6</ele>
        <time>2016-07-29T10:35:44Z</time>
      </trkpt>
      <trkpt lat="47.45153" lon="7.42468">
        <ele>698</ele>
        <time>2016-07-29T10:35:55Z</time>
      </trkpt>
      <trkpt lat="47.45162" lon="7.42487">
        <ele>692.2</ele>
        <time>2016-07-29T10:36:12Z</time>
      </trkpt>
      <trkpt lat="47.4517" lon="7.42504">
        <ele>688.7</ele>
        <time>2016-07-29T10:36:27Z</time>
      </trkpt>
      <trkpt lat="47.45178" lon="7.42522">
        <ele>688.1</ele>
        <time>2016-07-29T10:36:38Z</time>
      </trkpt>
      <trkpt lat="47.45186" lon="7.42542">
        <ele>684.9</ele>
        <time>2016-07-29T10:36:51Z</time>
      </trkpt>
      <trkpt lat="47.45193" lon="7.42559">
        <ele>682</ele>
        <time>2016-07-29T10:37:00Z</time>
      </trkpt>
      <trkpt lat="47.45204" lon="7.42572">
        <ele>675.8</ele>
        <time>2016-07-29T10:37:09Z</time>
      </trkpt>
      <trkpt lat="47.45212" lon="7.42589">
        <ele>671.4</ele>
        <time>2016-07-29T10:37:19Z</time>
      </trkpt>
      <trkpt lat="47.45219" lon="7.42607">
        <ele>668.4</ele>
        <time>2016-07-29T10:37:27Z</time>
      </trkpt>
      <trkpt lat="47.45229" lon="7.42621">
        <ele>667.3</ele>
        <time>2016-07-29T10:37:40Z</time>
      </trkpt>
      <trkpt lat="47.4524" lon="7.42638">
        <ele>667.7</ele>
        <time>2016-07-29T10:37:54Z</time>
      </trkpt>
      <trkpt lat="47.4525" lon="7.42654">
        <ele>668</ele>
        <time>2016-07-29T10:38:04Z</time>
      </trkpt>
      <trkpt lat="47.45258" lon="7.42672">
        <ele>669.4</ele>
        <time>2016-07-29T10:38:19Z</time>
      </trkpt>
      <trkpt lat="47.45257" lon="7.42686">
        <ele>662.1</ele>
        <time>2016-07-29T10:38:34Z</time>
      </trkpt>
      <trkpt lat="47.45268" lon="7.42697">
        <ele>659</ele>
        <time>2016-07-29T10:38:41Z</time>
      </trkpt>
      <trkpt lat="47.45277" lon="7.42716">
        <ele>656.7</ele>
        <time>2016-07-29T10:38:50Z</time>
      </trkpt>
      <trkpt lat="47.45282" lon="7.42735">
        <ele>660.6</ele>
        <time>2016-07-29T10:39:00Z</time>
      </trkpt>
      <trkpt lat="47.4529" lon="7.42751">
        <ele>654</ele>
        <time>2016-07-29T10:39:10Z</time>
      </trkpt>
      <trkpt lat="47.453" lon="7.42767">
        <ele>653</ele>
        <time>2016-07-29T10:39:22Z</time>
      </trkpt>
      <trkpt lat="47.45311" lon="7.42779">
        <ele>648.8</ele>
        <time>2016-07-29T10:39:33Z</time>
      </trkpt>
      <trkpt lat="47.4532" lon="7.42796">
        <ele>650.8</ele>
        <time>2016-07-29T10:39:42Z</time>
      </trkpt>
      <trkpt lat="47.45331" lon="7.42809">
        <ele>650.4</ele>
        <time>2016-07-29T10:39:51Z</time>
      </trkpt>
      <trkpt lat="47.45342" lon="7.4282">
        <ele>650.1</ele>
        <time>2016-07-29T10:40:01Z</time>
      </trkpt>
      <trkpt lat="47.45352" lon="7.42835">
        <ele>646</ele>
        <time>2016-07-29T10:40:10Z</time>
      </trkpt>
      <trkpt lat="47.45361" lon="7.4285">
        <ele>639.5</ele>
        <time>2016-07-29T10:40:24Z</time>
      </trkpt>
      <trkpt lat="47.4537" lon="7.42868">
        <ele>636.9</ele>
        <time>2016-07-29T10:40:38Z</time>
      </trkpt>
      <trkpt lat="47.45381" lon="7.42883">
        <ele>642.6</ele>
        <time>2016-07-29T10:40:54Z</time>
      </trkpt>
      <trkpt lat="47.45389" lon="7.42899">
        <ele>633.5</ele>
        <time>2016-07-29T10:41:26Z</time>
      </trkpt>
      <trkpt lat="47.45403" lon="7.42905">
        <ele>632</ele>
        <time>2016-07-29T10:41:39Z</time>
      </trkpt>
      <trkpt lat="47.45413" lon="7.42921">
        <ele>623.8</ele>
        <time>2016-07-29T10:41:55Z</time>
      </trkpt>
      <trkpt lat="47.45424" lon="7.42935">
        <ele>622.2</ele>
        <time>2016-07-29T10:42:05Z</time>
      </trkpt>
      <trkpt lat="47.45423" lon="7.4294">
        <ele>623.9</ele>
        <time>2016-07-29T10:42:27Z</time>
      </trkpt>
      <trkpt lat="47.45435" lon="7.4295">
        <ele>626</ele>
        <time>2016-07-29T10:42:44Z</time>
      </trkpt>
      <trkpt lat="47.45448" lon="7.42961">
        <ele>626.9</ele>
        <time>2016-07-29T10:42:51Z</time>
      </trkpt>
      <trkpt lat="47.45451" lon="7.42971">
        <ele>627.7</ele>
        <time>2016-07-29T10:42:57Z</time>
      </trkpt>
      <trkpt lat="47.45459" lon="7.42988">
        <ele>623.4</ele>
        <time>2016-07-29T10:44:07Z</time>
      </trkpt>
      <trkpt lat="47.4547" lon="7.43002">
        <ele>619.7</ele>
        <time>2016-07-29T10:44:18Z</time>
      </trkpt>
      <trkpt lat="47.45478" lon="7.43019">
        <ele>617.6</ele>
        <time>2016-07-29T10:44:30Z</time>
      </trkpt>
      <trkpt lat="47.4549" lon="7.43033">
        <ele>615.7</ele>
        <time>2016-07-29T10:44:42Z</time>
      </trkpt>
      <trkpt lat="47.45498" lon="7.43051">
        <ele>613</ele>
        <time>2016-07-29T10:44:52Z</time>
      </trkpt>
      <trkpt lat="47.45504" lon="7.43063">
        <ele>614.8</ele>
        <time>2016-07-29T10:45:00Z</time>
      </trkpt>
      <trkpt lat="47.45506" lon="7.43085">
        <ele>616.2</ele>
        <time>2016-07-29T10:45:16Z</time>
      </trkpt>
      <trkpt lat="47.45516" lon="7.43101">
        <ele>609</ele>
        <time>2016-07-29T10:45:28Z</time>
      </trkpt>
      <trkpt lat="47.45526" lon="7.43117">
        <ele>609</ele>
        <time>2016-07-29T10:45:37Z</time>
      </trkpt>
      <trkpt lat="47.45536" lon="7.43132">
        <ele>609</ele>
        <time>2016-07-29T10:45:46Z</time>
      </trkpt>
      <trkpt lat="47.4554" lon="7.4314">
        <ele>604.1</ele>
        <time>2016-07-29T10:45:51Z</time>
      </trkpt>
      <trkpt lat="47.4554" lon="7.43162">
        <ele>605.1</ele>
        <time>2016-07-29T10:46:12Z</time>
      </trkpt>
      <trkpt lat="47.4555" lon="7.43179">
        <ele>608</ele>
        <time>2016-07-29T10:46:20Z</time>
      </trkpt>
      <trkpt lat="47.45557" lon="7.43196">
        <ele>611.9</ele>
        <time>2016-07-29T10:46:29Z</time>
      </trkpt>
      <trkpt lat="47.45566" lon="7.43212">
        <ele>613.8</ele>
        <time>2016-07-29T10:46:37Z</time>
      </trkpt>
      <trkpt lat="47.45573" lon="7.43219">
        <ele>615.7</ele>
        <time>2016-07-29T10:46:46Z</time>
      </trkpt>
      <trkpt lat="47.45565" lon="7.43234">
        <ele>617.7</ele>
        <time>2016-07-29T10:46:56Z</time>
      </trkpt>
      <trkpt lat="47.45573" lon="7.43252">
        <ele>611</ele>
        <time>2016-07-29T10:47:08Z</time>
      </trkpt>
      <trkpt lat="47.45583" lon="7.43267">
        <ele>609</ele>
        <time>2016-07-29T10:47:15Z</time>
      </trkpt>
      <trkpt lat="47.45588" lon="7.43288">
        <ele>610.6</ele>
        <time>2016-07-29T10:47:23Z</time>
      </trkpt>
      <trkpt lat="47.45593" lon="7.43306">
        <ele>602.6</ele>
        <time>2016-07-29T10:47:33Z</time>
      </trkpt>
      <trkpt lat="47.45603" lon="7.43323">
        <ele>597.2</ele>
        <time>2016-07-29T10:47:43Z</time>
      </trkpt>
      <trkpt lat="47.45607" lon="7.43343">
        <ele>596.1</ele>
        <time>2016-07-29T10:47:51Z</time>
      </trkpt>
      <trkpt lat="47.45614" lon="7.43361">
        <ele>595</ele>
        <time>2016-07-29T10:47:59Z</time>
      </trkpt>
      <trkpt lat="47.45618" lon="7.43382">
        <ele>590</ele>
        <time>2016-07-29T10:48:13Z</time>
      </trkpt>
      <trkpt lat="47.45613" lon="7.43401">
        <ele>589.3</ele>
        <time>2016-07-29T10:48:28Z</time>
      </trkpt>
      <trkpt lat="47.4561" lon="7.43422">
        <ele>587.6</ele>
        <time>2016-07-29T10:48:42Z</time>
      </trkpt>
      <trkpt lat="47.45607" lon="7.43442">
        <ele>586</ele>
        <time>2016-07-29T10:48:51Z</time>
      </trkpt>
      <trkpt lat="47.45599" lon="7.4346">
        <ele>581</ele>
        <time>2016-07-29T10:49:01Z</time>
      </trkpt>
      <trkpt lat="47.45592" lon="7.43479">
        <ele>572</ele>
        <time>2016-07-29T10:49:13Z</time>
      </trkpt>
      <trkpt lat="47.4559" lon="7.43475">
        <ele>573.4</ele>
        <time>2016-07-29T10:49:17Z</time>
      </trkpt>
      <trkpt lat="47.45581" lon="7.43492">
        <ele>578.2</ele>
        <time>2016-07-29T10:49:32Z</time>
      </trkpt>
      <trkpt lat="47.45576" lon="7.43511">
        <ele>579.7</ele>
        <time>2016-07-29T10:49:54Z</time>
      </trkpt>
      <trkpt lat="47.45577" lon="7.43526">
        <ele>584.8</ele>
        <time>2016-07-29T10:50:21Z</time>
      </trkpt>
      <trkpt lat="47.45586" lon="7.43517">
        <ele>583.8</ele>
        <time>2016-07-29T10:51:01Z</time>
      </trkpt>
      <trkpt lat="47.45576" lon="7.43518">
        <ele>577.1</ele>
        <time>2016-07-29T10:52:09Z</time>
      </trkpt>
      <trkpt lat="47.45581" lon="7.4354">
        <ele>569.4</ele>
        <time>2016-07-29T10:52:29Z</time>
      </trkpt>
      <trkpt lat="47.45587" lon="7.43558">
        <ele>566.8</ele>
        <time>2016-07-29T10:52:39Z</time>
      </trkpt>
      <trkpt lat="47.45591" lon="7.43579">
        <ele>566.4</ele>
        <time>2016-07-29T10:52:52Z</time>
      </trkpt>
      <trkpt lat="47.45601" lon="7.43593">
        <ele>569</ele>
        <time>2016-07-29T10:53:03Z</time>
      </trkpt>
      <trkpt lat="47.45604" lon="7.43613">
        <ele>566</ele>
        <time>2016-07-29T10:53:15Z</time>
      </trkpt>
      <trkpt lat="47.45601" lon="7.43634">
        <ele>562</ele>
        <time>2016-07-29T10:53:28Z</time>
      </trkpt>
      <trkpt lat="47.45604" lon="7.43656">
        <ele>562</ele>
        <time>2016-07-29T10:53:38Z</time>
      </trkpt>
      <trkpt lat="47.45603" lon="7.43676">
        <ele>559.5</ele>
        <time>2016-07-29T10:53:49Z</time>
      </trkpt>
      <trkpt lat="47.45603" lon="7.43698">
        <ele>560.9</ele>
        <time>2016-07-29T10:54:01Z</time>
      </trkpt>
      <trkpt lat="47.45604" lon="7.4371">
        <ele>563.2</ele>
        <time>2016-07-29T10:54:09Z</time>
      </trkpt>
      <trkpt lat="47.45617" lon="7.43724">
        <ele>568.1</ele>
        <time>2016-07-29T10:55:19Z</time>
      </trkpt>
      <trkpt lat="47.45619" lon="7.43722">
        <ele>566.8</ele>
        <time>2016-07-29T10:55:23Z</time>
      </trkpt>
      <trkpt lat="47.4561" lon="7.43738">
        <ele>567.3</ele>
        <time>2016-07-29T10:55:45Z</time>
      </trkpt>
      <trkpt lat="47.45611" lon="7.43758">
        <ele>568.9</ele>
        <time>2016-07-29T10:55:56Z</time>
      </trkpt>
      <trkpt lat="47.45606" lon="7.43779">
        <ele>570.2</ele>
        <time>2016-07-29T10:56:11Z</time>
      </trkpt>
      <trkpt lat="47.45611" lon="7.43798">
        <ele>561.3</ele>
        <time>2016-07-29T10:56:24Z</time>
      </trkpt>
      <trkpt lat="47.45613" lon="7.43818">
        <ele>562.7</ele>
        <time>2016-07-29T10:56:35Z</time>
      </trkpt>
      <trkpt lat="47.45615" lon="7.43839">
        <ele>563.7</ele>
        <time>2016-07-29T10:56:43Z</time>
      </trkpt>
      <trkpt lat="47.45617" lon="7.43859">
        <ele>562.4</ele>
        <time>2016-07-29T10:56:54Z</time>
      </trkpt>
      <trkpt lat="47.4562" lon="7.4388">
        <ele>559.5</ele>
        <time>2016-07-29T10:57:10Z</time>
      </trkpt>
      <trkpt lat="47.45621" lon="7.439">
        <ele>557.3</ele>
        <time>2016-07-29T10:57:22Z</time>
      </trkpt>
      <trkpt lat="47.45624" lon="7.4392">
        <ele>555.2</ele>
        <time>2016-07-29T10:57:34Z</time>
      </trkpt>
      <trkpt lat="47.45629" lon="7.43939">
        <ele>553.4</ele>
        <time>2016-07-29T10:57:44Z</time>
      </trkpt>
      <trkpt lat="47.4564" lon="7.43953">
        <ele>549.3</ele>
        <time>2016-07-29T10:57:56Z</time>
      </trkpt>
      <trkpt lat="47.45644" lon="7.43974">
        <ele>546.1</ele>
        <time>2016-07-29T10:58:08Z</time>
      </trkpt>
      <trkpt lat="47.45649" lon="7.43992">
        <ele>545.1</ele>
        <time>2016-07-29T10:58:18Z</time>
      </trkpt>
      <trkpt lat="47.45653" lon="7.44012">
        <ele>543.7</ele>
        <time>2016-07-29T10:58:31Z</time>
      </trkpt>
      <trkpt lat="47.4566" lon="7.4403">
        <ele>535.2</ele>
        <time>2016-07-29T10:58:50Z</time>
      </trkpt>
      <trkpt lat="47.45671" lon="7.44043">
        <ele>540</ele>
        <time>2016-07-29T10:59:21Z</time>
      </trkpt>
      <trkpt lat="47.45669" lon="7.44045">
        <ele>538.2</ele>
        <time>2016-07-29T10:59:48Z</time>
      </trkpt>
      <trkpt lat="47.45674" lon="7.44046">
        <ele>538.7</ele>
        <time>2016-07-29T11:00:16Z</time>
      </trkpt>
      <trkpt lat="47.45685" lon="7.44038">
        <ele>538.5</ele>
        <time>2016-07-29T11:00:48Z</time>
      </trkpt>
      <trkpt lat="47.45683" lon="7.44025">
        <ele>538.1</ele>
        <time>2016-07-29T11:01:06Z</time>
      </trkpt>
      <trkpt lat="47.4569" lon="7.44007">
        <ele>532.7</ele>
        <time>2016-07-29T11:01:17Z</time>
      </trkpt>
      <trkpt lat="47.45694" lon="7.43987">
        <ele>531.5</ele>
        <time>2016-07-29T11:01:32Z</time>
      </trkpt>
      <trkpt lat="47.45699" lon="7.43981">
        <ele>533.6</ele>
        <time>2016-07-29T11:01:38Z</time>
      </trkpt>
      <trkpt lat="47.45704" lon="7.43962">
        <ele>527.9</ele>
        <time>2016-07-29T11:01:51Z</time>
      </trkpt>
      <trkpt lat="47.4571" lon="7.43943">
        <ele>522.9</ele>
        <time>2016-07-29T11:02:02Z</time>
      </trkpt>
      <trkpt lat="47.45716" lon="7.43924">
        <ele>523.2</ele>
        <time>2016-07-29T11:02:15Z</time>
      </trkpt>
      <trkpt lat="47.45723" lon="7.43907">
        <ele>526</ele>
        <time>2016-07-29T11:02:27Z</time>
      </trkpt>
      <trkpt lat="47.45734" lon="7.43895">
        <ele>520.6</ele>
        <time>2016-07-29T11:02:56Z</time>
      </trkpt>
      <trkpt lat="47.45744" lon="7.4388">
        <ele>517.9</ele>
        <time>2016-07-29T11:03:07Z</time>
      </trkpt>
      <trkpt lat="47.45749" lon="7.43879">
        <ele>507.8</ele>
        <time>2016-07-29T11:03:40Z</time>
      </trkpt>
      <trkpt lat="47.45745" lon="7.43899">
        <ele>507.1</ele>
        <time>2016-07-29T11:03:51Z</time>
      </trkpt>
      <trkpt lat="47.45741" lon="7.43919">
        <ele>501.6</ele>
        <time>2016-07-29T11:04:07Z</time>
      </trkpt>
      <trkpt lat="47.45742" lon="7.4394">
        <ele>509.9</ele>
        <time>2016-07-29T11:04:18Z</time>
      </trkpt>
      <trkpt lat="47.45741" lon="7.43961">
        <ele>513.8</ele>
        <time>2016-07-29T11:04:27Z</time>
      </trkpt>
      <trkpt lat="47.45737" lon="7.43981">
        <ele>517.2</ele>
        <time>2016-07-29T11:04:38Z</time>
      </trkpt>
      <trkpt lat="47.45733" lon="7.44001">
        <ele>516</ele>
        <time>2016-07-29T11:04:52Z</time>
      </trkpt>
      <trkpt lat="47.4574" lon="7.44021">
        <ele>517.6</ele>
        <time>2016-07-29T11:05:00Z</time>
      </trkpt>
      <trkpt lat="47.45741" lon="7.44042">
        <ele>507.4</ele>
        <time>2016-07-29T11:05:11Z</time>
      </trkpt>
      <trkpt lat="47.45741" lon="7.44063">
        <ele>500</ele>
        <time>2016-07-29T11:05:24Z</time>
      </trkpt>
      <trkpt lat="47.45743" lon="7.44084">
        <ele>500.1</ele>
        <time>2016-07-29T11:05:36Z</time>
      </trkpt>
      <trkpt lat="47.45743" lon="7.44105">
        <ele>500.1</ele>
        <time>2016-07-29T11:05:47Z</time>
      </trkpt>
      <trkpt lat="47.45748" lon="7.44126">
        <ele>498.2</ele>
        <time>2016-07-29T11:05:55Z</time>
      </trkpt>
      <trkpt lat="47.45748" lon="7.44148">
        <ele>499.4</ele>
        <time>2016-07-29T11:06:08Z</time>
      </trkpt>
      <trkpt lat="47.45752" lon="7.44168">
        <ele>493.5</ele>
        <time>2016-07-29T11:06:23Z</time>
      </trkpt>
      <trkpt lat="47.45751" lon="7.44188">
        <ele>489.4</ele>
        <time>2016-07-29T11:06:34Z</time>
      </trkpt>
      <trkpt lat="47.45751" lon="7.4421">
        <ele>484.8</ele>
        <time>2016-07-29T11:06:50Z</time>
      </trkpt>
      <trkpt lat="47.45744" lon="7.44228">
        <ele>484.4</ele>
        <time>2016-07-29T11:07:05Z</time>
      </trkpt>
      <trkpt lat="47.45739" lon="7.44238">
        <ele>488.3</ele>
        <time>2016-07-29T11:07:14Z</time>
      </trkpt>
      <trkpt lat="47.45739" lon="7.44259">
        <ele>481.5</ele>
        <time>2016-07-29T11:07:49Z</time>
      </trkpt>
      <trkpt lat="47.4574" lon="7.44256">
        <ele>480.1</ele>
        <time>2016-07-29T11:08:02Z</time>
      </trkpt>
      <trkpt lat="47.45736" lon="7.44257">
        <ele>483.8</ele>
        <time>2016-07-29T11:08:31Z</time>
      </trkpt>
      <trkpt lat="47.45732" lon="7.44264">
        <ele>486.4</ele>
        <time>2016-07-29T11:08:49Z</time>
      </trkpt>
      <trkpt lat="47.45733" lon="7.44268">
        <ele>487.3</ele>
        <time>2016-07-29T11:08:55Z</time>
      </trkpt>
      <trkpt lat="47.4573" lon="7.44266">
        <ele>491.3</ele>
        <time>2016-07-29T11:09:21Z</time>
      </trkpt>
      <trkpt lat="47.45739" lon="7.44248">
        <ele>487.7</ele>
        <time>2016-07-29T11:09:31Z</time>
      </trkpt>
      <trkpt lat="47.45753" lon="7.4424">
        <ele>486.9</ele>
        <time>2016-07-29T11:09:40Z</time>
      </trkpt>
      <trkpt lat="47.45767" lon="7.44233">
        <ele>488.4</ele>
        <time>2016-07-29T11:09:50Z</time>
      </trkpt>
      <trkpt lat="47.4578" lon="7.44228">
        <ele>489.8</ele>
        <time>2016-07-29T11:10:00Z</time>
      </trkpt>
      <trkpt lat="47.45794" lon="7.44226">
        <ele>486.8</ele>
        <time>2016-07-29T11:10:08Z</time>
      </trkpt>
      <trkpt lat="47.45808" lon="7.44229">
        <ele>484.7</ele>
        <time>2016-07-29T11:10:20Z</time>
      </trkpt>
      <trkpt lat="47.45806" lon="7.44229">
        <ele>476.4</ele>
        <time>2016-07-29T11:10:44Z</time>
      </trkpt>
      <trkpt lat="47.45814" lon="7.44233">
        <ele>473.3</ele>
        <time>2016-07-29T11:11:02Z</time>
      </trkpt>
      <trkpt lat="47.45809" lon="7.44232">
        <ele>469.6</ele>
        <time>2016-07-29T11:11:34Z</time>
      </trkpt>
      <trkpt lat="47.45822" lon="7.44224">
        <ele>473</ele>
        <time>2016-07-29T11:12:21Z</time>
      </trkpt>
      <trkpt lat="47.45836" lon="7.44224">
        <ele>474.6</ele>
        <time>2016-07-29T11:12:38Z</time>
      </trkpt>
      <trkpt lat="47.4585" lon="7.44223">
        <ele>475.9</ele>
        <time>2016-07-29T11:12:52Z</time>
      </trkpt>
      <trkpt lat="47.45865" lon="7.44225">
        <ele>472.4</ele>
        <time>2016-07-29T11:13:01Z</time>
      </trkpt>
      <trkpt lat="47.45879" lon="7.44227">
        <ele>460</ele>
        <time>2016-07-29T11:13:13Z</time>
      </trkpt>
      <trkpt lat="47.45893" lon="7.4423">
        <ele>456.9</ele>
        <time>2016-07-29T11:13:24Z</time>
      </trkpt>
      <trkpt lat="47.45907" lon="7.44233">
        <ele>457</ele>
        <time>2016-07-29T11:13:35Z</time>
      </trkpt>
      <trkpt lat="47.45921" lon="7.44236">
        <ele>458</ele>
        <time>2016-07-29T11:13:49Z</time>
      </trkpt>
      <trkpt lat="47.45936" lon="7.4424">
        <ele>458</ele>
        <time>2016-07-29T11:14:01Z</time>
      </trkpt>
      <trkpt lat="47.45949" lon="7.44242">
        <ele>459.7</ele>
        <time>2016-07-29T11:14:12Z</time>
      </trkpt>
      <trkpt lat="47.45962" lon="7.44246">
        <ele>457.1</ele>
        <time>2016-07-29T11:14:27Z</time>
      </trkpt>
      <trkpt lat="47.45965" lon="7.4426">
        <ele>454.3</ele>
        <time>2016-07-29T11:14:45Z</time>
      </trkpt>
      <trkpt lat="47.45978" lon="7.44251">
        <ele>452.9</ele>
        <time>2016-07-29T11:15:58Z</time>
      </trkpt>
      <trkpt lat="47.45992" lon="7.44255">
        <ele>454.2</ele>
        <time>2016-07-29T11:16:10Z</time>
      </trkpt>
      <trkpt lat="47.46005" lon="7.44264">
        <ele>454.3</ele>
        <time>2016-07-29T11:16:19Z</time>
      </trkpt>
      <trkpt lat="47.46018" lon="7.44274">
        <ele>450.5</ele>
        <time>2016-07-29T11:16:29Z</time>
      </trkpt>
      <trkpt lat="47.46031" lon="7.44281">
        <ele>446.5</ele>
        <time>2016-07-29T11:16:38Z</time>
      </trkpt>
      <trkpt lat="47.46042" lon="7.44294">
        <ele>447.5</ele>
        <time>2016-07-29T11:16:50Z</time>
      </trkpt>
      <trkpt lat="47.46052" lon="7.44308">
        <ele>448.6</ele>
        <time>2016-07-29T11:17:06Z</time>
      </trkpt>
      <trkpt lat="47.46064" lon="7.44319">
        <ele>447.7</ele>
        <time>2016-07-29T11:17:19Z</time>
      </trkpt>
      <trkpt lat="47.46077" lon="7.4433">
        <ele>446.9</ele>
        <time>2016-07-29T11:17:29Z</time>
      </trkpt>
      <trkpt lat="47.46089" lon="7.44341">
        <ele>446.1</ele>
        <time>2016-07-29T11:17:42Z</time>
      </trkpt>
      <trkpt lat="47.46101" lon="7.4435">
        <ele>447.7</ele>
        <time>2016-07-29T11:17:56Z</time>
      </trkpt>
      <trkpt lat="47.46115" lon="7.44355">
        <ele>448.9</ele>
        <time>2016-07-29T11:18:07Z</time>
      </trkpt>
      <trkpt lat="47.46128" lon="7.44361">
        <ele>455.9</ele>
        <time>2016-07-29T11:18:19Z</time>
      </trkpt>
      <trkpt lat="47.46141" lon="7.44376">
        <ele>462</ele>
        <time>2016-07-29T11:18:30Z</time>
      </trkpt>
      <trkpt lat="47.46148" lon="7.44387">
        <ele>462.7</ele>
        <time>2016-07-29T11:18:38Z</time>
      </trkpt>
      <trkpt lat="47.46157" lon="7.44403">
        <ele>461.7</ele>
        <time>2016-07-29T11:18:50Z</time>
      </trkpt>
      <trkpt lat="47.4617" lon="7.44412">
        <ele>461.7</ele>
        <time>2016-07-29T11:18:58Z</time>
      </trkpt>
      <trkpt lat="47.46184" lon="7.4442">
        <ele>464.8</ele>
        <time>2016-07-29T11:19:11Z</time>
      </trkpt>
      <trkpt lat="47.46193" lon="7.44435">
        <ele>464.4</ele>
        <time>2016-07-29T11:19:21Z</time>
      </trkpt>
      <trkpt lat="47.46202" lon="7.4445">
        <ele>461.4</ele>
        <time>2016-07-29T11:19:37Z</time>
      </trkpt>
      <trkpt lat="47.46213" lon="7.44465">
        <ele>460.3</ele>
        <time>2016-07-29T11:19:46Z</time>
      </trkpt>
      <trkpt lat="47.46217" lon="7.44486">
        <ele>462.4</ele>
        <time>2016-07-29T11:20:06Z</time>
      </trkpt>
      <trkpt lat="47.46224" lon="7.44505">
        <ele>461.5</ele>
        <time>2016-07-29T11:20:13Z</time>
      </trkpt>
      <trkpt lat="47.46229" lon="7.44514">
        <ele>463.4</ele>
        <time>2016-07-29T11:20:20Z</time>
      </trkpt>
      <trkpt lat="47.46233" lon="7.44511">
        <ele>468.7</ele>
        <time>2016-07-29T11:20:33Z</time>
      </trkpt>
      <trkpt lat="47.46244" lon="7.44526">
        <ele>470.7</ele>
        <time>2016-07-29T11:20:55Z</time>
      </trkpt>
      <trkpt lat="47.4625" lon="7.44532">
        <ele>474.4</ele>
        <time>2016-07-29T11:21:04Z</time>
      </trkpt>
      <trkpt lat="47.46255" lon="7.44533">
        <ele>473.5</ele>
        <time>2016-07-29T11:21:07Z</time>
      </trkpt>
      <trkpt lat="47.46255" lon="7.44526">
        <ele>465.8</ele>
        <time>2016-07-29T11:21:32Z</time>
      </trkpt>
      <trkpt lat="47.4626" lon="7.44527">
        <ele>464</ele>
        <time>2016-07-29T11:21:37Z</time>
      </trkpt>
      <trkpt lat="47.46255" lon="7.44548">
        <ele>460.1</ele>
        <time>2016-07-29T11:21:48Z</time>
      </trkpt>
      <trkpt lat="47.46259" lon="7.44562">
        <ele>459</ele>
        <time>2016-07-29T11:22:04Z</time>
      </trkpt>
      <trkpt lat="47.46271" lon="7.44564">
        <ele>463.5</ele>
        <time>2016-07-29T11:22:19Z</time>
      </trkpt>
      <trkpt lat="47.4627" lon="7.4456">
        <ele>461.5</ele>
        <time>2016-07-29T11:22:23Z</time>
      </trkpt>
      <trkpt lat="47.46275" lon="7.44558">
        <ele>458.8</ele>
        <time>2016-07-29T11:22:36Z</time>
      </trkpt>
      <trkpt lat="47.46289" lon="7.44569">
        <ele>459.9</ele>
        <time>2016-07-29T11:23:00Z</time>
      </trkpt>
      <trkpt lat="47.46302" lon="7.44577">
        <ele>453</ele>
        <time>2016-07-29T11:23:15Z</time>
      </trkpt>
      <trkpt lat="47.46313" lon="7.4459">
        <ele>459.5</ele>
        <time>2016-07-29T11:23:47Z</time>
      </trkpt>
      <trkpt lat="47.46315" lon="7.44589">
        <ele>463.4</ele>
        <time>2016-07-29T11:23:59Z</time>
      </trkpt>
      <trkpt lat="47.46316" lon="7.44587">
        <ele>465.3</ele>
        <time>2016-07-29T11:24:04Z</time>
      </trkpt>
      <trkpt lat="47.46323" lon="7.44593">
        <ele>469</ele>
        <time>2016-07-29T11:24:30Z</time>
      </trkpt>
      <trkpt lat="47.46323" lon="7.446">
        <ele>470</ele>
        <time>2016-07-29T11:25:05Z</time>
      </trkpt>
      <trkpt lat="47.46331" lon="7.44602">
        <ele>465</ele>
        <time>2016-07-29T11:35:41Z</time>
      </trkpt>
      <trkpt lat="47.46329" lon="7.44593">
        <ele>461.5</ele>
        <time>2016-07-29T11:36:40Z</time>
      </trkpt>
      <trkpt lat="47.46316" lon="7.44601">
        <ele>465.9</ele>
        <time>2016-07-29T11:37:05Z</time>
      </trkpt>
      <trkpt lat="47.46317" lon="7.44605">
        <ele>464.9</ele>
        <time>2016-07-29T11:37:09Z</time>
      </trkpt>
      <trkpt lat="47.46319" lon="7.44607">
        <ele>465.9</ele>
        <time>2016-07-29T11:37:22Z</time>
      </trkpt>
      <trkpt lat="47.46323" lon="7.446">
        <ele>466.6</ele>
        <time>2016-07-29T11:38:58Z</time>
      </trkpt>
      <trkpt lat="47.46324" lon="7.44598">
        <ele>468.8</ele>
        <time>2016-07-29T11:39:11Z</time>
      </trkpt>
      <trkpt lat="47.46321" lon="7.44599">
        <ele>470.7</ele>
        <time>2016-07-29T11:39:14Z</time>
      </trkpt>
      <trkpt lat="47.46332" lon="7.44612">
        <ele>476.1</ele>
        <time>2016-07-29T11:39:34Z</time>
      </trkpt>
      <trkpt lat="47.46341" lon="7.44628">
        <ele>483.3</ele>
        <time>2016-07-29T11:39:55Z</time>
      </trkpt>
      <trkpt lat="47.46352" lon="7.44642">
        <ele>483</ele>
        <time>2016-07-29T11:40:22Z</time>
      </trkpt>
      <trkpt lat="47.46361" lon="7.4466">
        <ele>480.4</ele>
        <time>2016-07-29T11:40:34Z</time>
      </trkpt>
      <trkpt lat="47.46369" lon="7.44677">
        <ele>485.9</ele>
        <time>2016-07-29T11:40:54Z</time>
      </trkpt>
      <trkpt lat="47.46381" lon="7.44692">
        <ele>484.5</ele>
        <time>2016-07-29T11:41:04Z</time>
      </trkpt>
      <trkpt lat="47.46389" lon="7.44709">
        <ele>486.2</ele>
        <time>2016-07-29T11:41:10Z</time>
      </trkpt>
      <trkpt lat="47.46399" lon="7.44722">
        <ele>490.7</ele>
        <time>2016-07-29T11:41:25Z</time>
      </trkpt>
      <trkpt lat="47.4641" lon="7.44736">
        <ele>488.9</ele>
        <time>2016-07-29T11:41:37Z</time>
      </trkpt>
      <trkpt lat="47.4642" lon="7.44751">
        <ele>486.7</ele>
        <time>2016-07-29T11:41:47Z</time>
      </trkpt>
      <trkpt lat="47.46428" lon="7.44769">
        <ele>489.7</ele>
        <time>2016-07-29T11:41:58Z</time>
      </trkpt>
      <trkpt lat="47.4644" lon="7.44786">
        <ele>487.8</ele>
        <time>2016-07-29T11:42:15Z</time>
      </trkpt>
      <trkpt lat="47.46451" lon="7.44802">
        <ele>479.2</ele>
        <time>2016-07-29T11:42:24Z</time>
      </trkpt>
      <trkpt lat="47.46464" lon="7.44811">
        <ele>481.3</ele>
        <time>2016-07-29T11:42:35Z</time>
      </trkpt>
      <trkpt lat="47.46478" lon="7.44817">
        <ele>488</ele>
        <time>2016-07-29T11:42:54Z</time>
      </trkpt>
      <trkpt lat="47.46491" lon="7.44827">
        <ele>494.2</ele>
        <time>2016-07-29T11:43:07Z</time>
      </trkpt>
      <trkpt lat="47.46503" lon="7.4484">
        <ele>495.5</ele>
        <time>2016-07-29T11:43:14Z</time>
      </trkpt>
      <trkpt lat="47.46501" lon="7.44859">
        <ele>495.2</ele>
        <time>2016-07-29T11:43:23Z</time>
      </trkpt>
      <trkpt lat="47.46508" lon="7.44878">
        <ele>498</ele>
        <time>2016-07-29T11:43:33Z</time>
      </trkpt>
      <trkpt lat="47.46514" lon="7.44896">
        <ele>491.1</ele>
        <time>2016-07-29T11:43:44Z</time>
      </trkpt>
      <trkpt lat="47.46527" lon="7.44902">
        <ele>481</ele>
        <time>2016-07-29T11:43:56Z</time>
      </trkpt>
      <trkpt lat="47.46523" lon="7.44902">
        <ele>485</ele>
        <time>2016-07-29T11:44:25Z</time>
      </trkpt>
      <trkpt lat="47.46532" lon="7.44908">
        <ele>486.2</ele>
        <time>2016-07-29T11:44:37Z</time>
      </trkpt>
      <trkpt lat="47.46545" lon="7.44897">
        <ele>487.8</ele>
        <time>2016-07-29T11:45:00Z</time>
      </trkpt>
      <trkpt lat="47.46547" lon="7.44892">
        <ele>495.7</ele>
        <time>2016-07-29T11:45:20Z</time>
      </trkpt>
      <trkpt lat="47.46541" lon="7.44885">
        <ele>498.4</ele>
        <time>2016-07-29T11:45:27Z</time>
      </trkpt>
      <trkpt lat="47.46554" lon="7.44894">
        <ele>500.8</ele>
        <time>2016-07-29T11:45:38Z</time>
      </trkpt>
      <trkpt lat="47.46569" lon="7.44891">
        <ele>493.1</ele>
        <time>2016-07-29T11:45:50Z</time>
      </trkpt>
      <trkpt lat="47.46582" lon="7.44884">
        <ele>491.5</ele>
        <time>2016-07-29T11:45:59Z</time>
      </trkpt>
      <trkpt lat="47.46597" lon="7.44885">
        <ele>492.7</ele>
        <time>2016-07-29T11:46:15Z</time>
      </trkpt>
      <trkpt lat="47.46611" lon="7.44898">
        <ele>493.4</ele>
        <time>2016-07-29T11:46:33Z</time>
      </trkpt>
      <trkpt lat="47.46624" lon="7.44904">
        <ele>494</ele>
        <time>2016-07-29T11:46:42Z</time>
      </trkpt>
      <trkpt lat="47.46636" lon="7.44916">
        <ele>497</ele>
        <time>2016-07-29T11:46:55Z</time>
      </trkpt>
      <trkpt lat="47.46651" lon="7.44922">
        <ele>497.4</ele>
        <time>2016-07-29T11:47:06Z</time>
      </trkpt>
      <trkpt lat="47.46661" lon="7.44929">
        <ele>497.8</ele>
        <time>2016-07-29T11:47:14Z</time>
      </trkpt>
      <trkpt lat="47.46657" lon="7.44932">
        <ele>498.2</ele>
        <time>2016-07-29T11:47:23Z</time>
      </trkpt>
      <trkpt lat="47.4667" lon="7.4494">
        <ele>498.8</ele>
        <time>2016-07-29T11:47:35Z</time>
      </trkpt>
      <trkpt lat="47.46684" lon="7.44949">
        <ele>502.6</ele>
        <time>2016-07-29T11:47:48Z</time>
      </trkpt>
      <trkpt lat="47.46697" lon="7.44957">
        <ele>503.6</ele>
        <time>2016-07-29T11:48:07Z</time>
      </trkpt>
      <trkpt lat="47.46706" lon="7.44974">
        <ele>502.8</ele>
        <time>2016-07-29T11:48:23Z</time>
      </trkpt>
      <trkpt lat="47.46718" lon="7.44987">
        <ele>504.6</ele>
        <time>2016-07-29T11:48:37Z</time>
      </trkpt>
      <trkpt lat="47.46731" lon="7.44992">
        <ele>508.6</ele>
        <time>2016-07-29T11:48:52Z</time>
      </trkpt>
      <trkpt lat="47.46742" lon="7.45006">
        <ele>513.7</ele>
        <time>2016-07-29T11:49:05Z</time>
      </trkpt>
      <trkpt lat="47.46754" lon="7.45018">
        <ele>515.1</ele>
        <time>2016-07-29T11:49:17Z</time>
      </trkpt>
      <trkpt lat="47.46766" lon="7.45031">
        <ele>516.3</ele>
        <time>2016-07-29T11:49:27Z</time>
      </trkpt>
      <trkpt lat="47.46778" lon="7.45047">
        <ele>519.7</ele>
        <time>2016-07-29T11:49:45Z</time>
      </trkpt>
      <trkpt lat="47.46787" lon="7.45064">
        <ele>522.2</ele>
        <time>2016-07-29T11:49:54Z</time>
      </trkpt>
      <trkpt lat="47.46797" lon="7.45082">
        <ele>521.6</ele>
        <time>2016-07-29T11:50:06Z</time>
      </trkpt>
      <trkpt lat="47.46805" lon="7.45098">
        <ele>521.2</ele>
        <time>2016-07-29T11:50:19Z</time>
      </trkpt>
      <trkpt lat="47.46816" lon="7.45113">
        <ele>518.4</ele>
        <time>2016-07-29T11:50:27Z</time>
      </trkpt>
      <trkpt lat="47.46825" lon="7.45128">
        <ele>523</ele>
        <time>2016-07-29T11:50:40Z</time>
      </trkpt>
      <trkpt lat="47.46839" lon="7.45135">
        <ele>523.6</ele>
        <time>2016-07-29T11:50:50Z</time>
      </trkpt>
      <trkpt lat="47.46852" lon="7.45143">
        <ele>524.8</ele>
        <time>2016-07-29T11:51:03Z</time>
      </trkpt>
      <trkpt lat="47.46861" lon="7.4516">
        <ele>525.7</ele>
        <time>2016-07-29T11:51:14Z</time>
      </trkpt>
      <trkpt lat="47.46868" lon="7.45179">
        <ele>524.7</ele>
        <time>2016-07-29T11:51:24Z</time>
      </trkpt>
      <trkpt lat="47.4688" lon="7.45189">
        <ele>521.6</ele>
        <time>2016-07-29T11:51:33Z</time>
      </trkpt>
      <trkpt lat="47.46891" lon="7.45196">
        <ele>519.9</ele>
        <time>2016-07-29T11:51:37Z</time>
      </trkpt>
      <trkpt lat="47.46891" lon="7.45192">
        <ele>513.2</ele>
        <time>2016-07-29T11:51:46Z</time>
      </trkpt>
      <trkpt lat="47.46881" lon="7.45187">
        <ele>506.1</ele>
        <time>2016-07-29T11:51:57Z</time>
      </trkpt>
      <trkpt lat="47.46884" lon="7.45193">
        <ele>514</ele>
        <time>2016-07-29T11:52:54Z</time>
      </trkpt>
      <trkpt lat="47.46883" lon="7.45208">
        <ele>520.7</ele>
        <time>2016-07-29T11:53:11Z</time>
      </trkpt>
      <trkpt lat="47.46894" lon="7.45219">
        <ele>525.9</ele>
        <time>2016-07-29T11:53:26Z</time>
      </trkpt>
      <trkpt lat="47.46905" lon="7.45231">
        <ele>524.5</ele>
        <time>2016-07-29T11:53:37Z</time>
      </trkpt>
      <trkpt lat="47.46915" lon="7.45244">
        <ele>526.4</ele>
        <time>2016-07-29T11:53:50Z</time>
      </trkpt>
      <trkpt lat="47.46925" lon="7.45259">
        <ele>529.3</ele>
        <time>2016-07-29T11:54:00Z</time>
      </trkpt>
      <trkpt lat="47.46937" lon="7.45273">
        <ele>527.6</ele>
        <time>2016-07-29T11:54:12Z</time>
      </trkpt>
      <trkpt lat="47.46949" lon="7.45285">
        <ele>529</ele>
        <time>2016-07-29T11:54:23Z</time>
      </trkpt>
      <trkpt lat="47.46957" lon="7.45302">
        <ele>530.1</ele>
        <time>2016-07-29T11:54:34Z</time>
      </trkpt>
      <trkpt lat="47.46968" lon="7.45315">
        <ele>525.3</ele>
        <time>2016-07-29T11:54:41Z</time>
      </trkpt>
      <trkpt lat="47.46972" lon="7.4532">
        <ele>522.3</ele>
        <time>2016-07-29T11:54:45Z</time>
      </trkpt>
      <trkpt lat="47.46981" lon="7.4534">
        <ele>521.8</ele>
        <time>2016-07-29T11:54:59Z</time>
      </trkpt>
      <trkpt lat="47.46989" lon="7.45356">
        <ele>519.6</ele>
        <time>2016-07-29T11:55:12Z</time>
      </trkpt>
      <trkpt lat="47.46999" lon="7.4537">
        <ele>521.6</ele>
        <time>2016-07-29T11:55:21Z</time>
      </trkpt>
      <trkpt lat="47.47008" lon="7.45386">
        <ele>523.3</ele>
        <time>2016-07-29T11:55:35Z</time>
      </trkpt>
      <trkpt lat="47.47019" lon="7.45401">
        <ele>517.2</ele>
        <time>2016-07-29T11:55:49Z</time>
      </trkpt>
      <trkpt lat="47.4703" lon="7.45415">
        <ele>519.2</ele>
        <time>2016-07-29T11:55:57Z</time>
      </trkpt>
      <trkpt lat="47.47037" lon="7.4544">
        <ele>520.5</ele>
        <time>2016-07-29T11:56:03Z</time>
      </trkpt>
      <trkpt lat="47.47045" lon="7.45455">
        <ele>523.4</ele>
        <time>2016-07-29T11:56:19Z</time>
      </trkpt>
      <trkpt lat="47.47051" lon="7.45474">
        <ele>525.7</ele>
        <time>2016-07-29T11:56:36Z</time>
      </trkpt>
      <trkpt lat="47.47057" lon="7.45493">
        <ele>527.8</ele>
        <time>2016-07-29T11:56:49Z</time>
      </trkpt>
      <trkpt lat="47.47063" lon="7.45508">
        <ele>527</ele>
        <time>2016-07-29T11:57:00Z</time>
      </trkpt>
      <trkpt lat="47.47057" lon="7.45521">
        <ele>522.1</ele>
        <time>2016-07-29T11:57:15Z</time>
      </trkpt>
      <trkpt lat="47.47062" lon="7.4552">
        <ele>520.8</ele>
        <time>2016-07-29T11:57:25Z</time>
      </trkpt>
      <trkpt lat="47.47071" lon="7.45536">
        <ele>515.9</ele>
        <time>2016-07-29T11:58:03Z</time>
      </trkpt>
      <trkpt lat="47.47074" lon="7.45541">
        <ele>511.6</ele>
        <time>2016-07-29T11:58:11Z</time>
      </trkpt>
      <trkpt lat="47.47072" lon="7.45562">
        <ele>508.7</ele>
        <time>2016-07-29T11:58:19Z</time>
      </trkpt>
      <trkpt lat="47.47069" lon="7.45573">
        <ele>503.3</ele>
        <time>2016-07-29T11:58:38Z</time>
      </trkpt>
      <trkpt lat="47.47073" lon="7.45591">
        <ele>511.8</ele>
        <time>2016-07-29T11:58:56Z</time>
      </trkpt>
      <trkpt lat="47.47077" lon="7.45591">
        <ele>517.4</ele>
        <time>2016-07-29T11:59:09Z</time>
      </trkpt>
      <trkpt lat="47.47082" lon="7.4561">
        <ele>525.6</ele>
        <time>2016-07-29T11:59:26Z</time>
      </trkpt>
      <trkpt lat="47.47084" lon="7.45629">
        <ele>524.8</ele>
        <time>2016-07-29T11:59:46Z</time>
      </trkpt>
      <trkpt lat="47.47094" lon="7.45645">
        <ele>527.1</ele>
        <time>2016-07-29T12:00:06Z</time>
      </trkpt>
      <trkpt lat="47.47104" lon="7.45661">
        <ele>525.9</ele>
        <time>2016-07-29T12:00:20Z</time>
      </trkpt>
      <trkpt lat="47.47117" lon="7.45668">
        <ele>522.8</ele>
        <time>2016-07-29T12:00:30Z</time>
      </trkpt>
      <trkpt lat="47.47125" lon="7.45686">
        <ele>525.2</ele>
        <time>2016-07-29T12:00:47Z</time>
      </trkpt>
      <trkpt lat="47.47128" lon="7.45706">
        <ele>526.6</ele>
        <time>2016-07-29T12:00:58Z</time>
      </trkpt>
      <trkpt lat="47.47132" lon="7.45723">
        <ele>525.9</ele>
        <time>2016-07-29T12:01:06Z</time>
      </trkpt>
      <trkpt lat="47.4714" lon="7.45723">
        <ele>525.2</ele>
        <time>2016-07-29T12:01:14Z</time>
      </trkpt>
      <trkpt lat="47.47144" lon="7.45743">
        <ele>524.5</ele>
        <time>2016-07-29T12:01:22Z</time>
      </trkpt>
      <trkpt lat="47.47152" lon="7.45761">
        <ele>523.5</ele>
        <time>2016-07-29T12:01:33Z</time>
      </trkpt>
      <trkpt lat="47.47159" lon="7.45778">
        <ele>524</ele>
        <time>2016-07-29T12:01:45Z</time>
      </trkpt>
      <trkpt lat="47.47169" lon="7.45795">
        <ele>525.9</ele>
        <time>2016-07-29T12:01:58Z</time>
      </trkpt>
      <trkpt lat="47.47173" lon="7.45806">
        <ele>526.9</ele>
        <time>2016-07-29T12:02:06Z</time>
      </trkpt>
      <trkpt lat="47.47184" lon="7.45819">
        <ele>528.1</ele>
        <time>2016-07-29T12:02:15Z</time>
      </trkpt>
      <trkpt lat="47.47192" lon="7.4584">
        <ele>530</ele>
        <time>2016-07-29T12:02:34Z</time>
      </trkpt>
      <trkpt lat="47.47202" lon="7.45857">
        <ele>530.9</ele>
        <time>2016-07-29T12:02:44Z</time>
      </trkpt>
      <trkpt lat="47.47212" lon="7.4587">
        <ele>532</ele>
        <time>2016-07-29T12:02:56Z</time>
      </trkpt>
      <trkpt lat="47.47219" lon="7.45889">
        <ele>532.6</ele>
        <time>2016-07-29T12:03:10Z</time>
      </trkpt>
      <trkpt lat="47.47232" lon="7.45901">
        <ele>530.4</ele>
        <time>2016-07-29T12:03:22Z</time>
      </trkpt>
      <trkpt lat="47.47242" lon="7.45916">
        <ele>528.6</ele>
        <time>2016-07-29T12:03:32Z</time>
      </trkpt>
      <trkpt lat="47.47255" lon="7.45925">
        <ele>525.9</ele>
        <time>2016-07-29T12:03:42Z</time>
      </trkpt>
      <trkpt lat="47.47266" lon="7.45937">
        <ele>526.2</ele>
        <time>2016-07-29T12:03:53Z</time>
      </trkpt>
      <trkpt lat="47.47278" lon="7.45948">
        <ele>534.4</ele>
        <time>2016-07-29T12:04:07Z</time>
      </trkpt>
      <trkpt lat="47.47291" lon="7.45956">
        <ele>538.6</ele>
        <time>2016-07-29T12:04:19Z</time>
      </trkpt>
      <trkpt lat="47.47294" lon="7.45965">
        <ele>535.5</ele>
        <time>2016-07-29T12:04:30Z</time>
      </trkpt>
      <trkpt lat="47.47287" lon="7.45978">
        <ele>535</ele>
        <time>2016-07-29T12:04:47Z</time>
      </trkpt>
      <trkpt lat="47.47296" lon="7.45996">
        <ele>541.5</ele>
        <time>2016-07-29T12:05:17Z</time>
      </trkpt>
      <trkpt lat="47.47306" lon="7.46011">
        <ele>540.5</ele>
        <time>2016-07-29T12:05:31Z</time>
      </trkpt>
      <trkpt lat="47.47312" lon="7.4603">
        <ele>539.2</ele>
        <time>2016-07-29T12:05:44Z</time>
      </trkpt>
      <trkpt lat="47.4732" lon="7.46047">
        <ele>540.5</ele>
        <time>2016-07-29T12:05:56Z</time>
      </trkpt>
      <trkpt lat="47.47322" lon="7.46067">
        <ele>542.3</ele>
        <time>2016-07-29T12:06:12Z</time>
      </trkpt>
      <trkpt lat="47.4733" lon="7.46084">
        <ele>544.1</ele>
        <time>2016-07-29T12:06:25Z</time>
      </trkpt>
      <trkpt lat="47.47339" lon="7.46102">
        <ele>545.6</ele>
        <time>2016-07-29T12:06:35Z</time>
      </trkpt>
      <trkpt lat="47.47351" lon="7.46113">
        <ele>541</ele>
        <time>2016-07-29T12:06:46Z</time>
      </trkpt>
      <trkpt lat="47.4736" lon="7.46127">
        <ele>546.5</ele>
        <time>2016-07-29T12:07:03Z</time>
      </trkpt>
      <trkpt lat="47.47373" lon="7.46136">
        <ele>548.6</ele>
        <time>2016-07-29T12:07:14Z</time>
      </trkpt>
      <trkpt lat="47.47378" lon="7.46154">
        <ele>551</ele>
        <time>2016-07-29T12:07:24Z</time>
      </trkpt>
      <trkpt lat="47.47392" lon="7.46162">
        <ele>551.7</ele>
        <time>2016-07-29T12:07:37Z</time>
      </trkpt>
      <trkpt lat="47.47403" lon="7.46178">
        <ele>553</ele>
        <time>2016-07-29T12:07:48Z</time>
      </trkpt>
      <trkpt lat="47.47406" lon="7.46198">
        <ele>553</ele>
        <time>2016-07-29T12:07:56Z</time>
      </trkpt>
      <trkpt lat="47.4742" lon="7.46206">
        <ele>553</ele>
        <time>2016-07-29T12:08:11Z</time>
      </trkpt>
      <trkpt lat="47.47432" lon="7.46217">
        <ele>559.2</ele>
        <time>2016-07-29T12:08:23Z</time>
      </trkpt>
      <trkpt lat="47.47445" lon="7.46225">
        <ele>563.1</ele>
        <time>2016-07-29T12:08:37Z</time>
      </trkpt>
      <trkpt lat="47.47457" lon="7.46238">
        <ele>563.4</ele>
        <time>2016-07-29T12:08:51Z</time>
      </trkpt>
      <trkpt lat="47.47463" lon="7.46257">
        <ele>563.7</ele>
        <time>2016-07-29T12:09:02Z</time>
      </trkpt>
      <trkpt lat="47.47476" lon="7.46264">
        <ele>563.9</ele>
        <time>2016-07-29T12:09:14Z</time>
      </trkpt>
      <trkpt lat="47.47489" lon="7.4627">
        <ele>561.4</ele>
        <time>2016-07-29T12:09:27Z</time>
      </trkpt>
      <trkpt lat="47.47498" lon="7.46287">
        <ele>565.2</ele>
        <time>2016-07-29T12:09:38Z</time>
      </trkpt>
      <trkpt lat="47.47505" lon="7.46305">
        <ele>563</ele>
        <time>2016-07-29T12:09:48Z</time>
      </trkpt>
      <trkpt lat="47.47511" lon="7.46324">
        <ele>568.6</ele>
        <time>2016-07-29T12:10:04Z</time>
      </trkpt>
      <trkpt lat="47.4752" lon="7.4634">
        <ele>569</ele>
        <time>2016-07-29T12:10:14Z</time>
      </trkpt>
      <trkpt lat="47.4753" lon="7.46355">
        <ele>572.1</ele>
        <time>2016-07-29T12:10:24Z</time>
      </trkpt>
      <trkpt lat="47.47536" lon="7.46374">
        <ele>575.7</ele>
        <time>2016-07-29T12:10:36Z</time>
      </trkpt>
      <trkpt lat="47.47548" lon="7.46388">
        <ele>576</ele>
        <time>2016-07-29T12:10:50Z</time>
      </trkpt>
      <trkpt lat="47.47556" lon="7.46404">
        <ele>576</ele>
        <time>2016-07-29T12:10:59Z</time>
      </trkpt>
      <trkpt lat="47.47563" lon="7.46409">
        <ele>576</ele>
        <time>2016-07-29T12:11:08Z</time>
      </trkpt>
      <trkpt lat="47.4757" lon="7.46427">
        <ele>579</ele>
        <time>2016-07-29T12:11:19Z</time>
      </trkpt>
      <trkpt lat="47.4758" lon="7.46439">
        <ele>580.7</ele>
        <time>2016-07-29T12:11:31Z</time>
      </trkpt>
      <trkpt lat="47.4758" lon="7.46447">
        <ele>580.5</ele>
        <time>2016-07-29T12:11:35Z</time>
      </trkpt>
      <trkpt lat="47.47592" lon="7.46459">
        <ele>576.6</ele>
        <time>2016-07-29T12:11:41Z</time>
      </trkpt>
      <trkpt lat="47.47604" lon="7.46473">
        <ele>570.2</ele>
        <time>2016-07-29T12:11:47Z</time>
      </trkpt>
      <trkpt lat="47.47612" lon="7.4649">
        <ele>573</ele>
        <time>2016-07-29T12:12:02Z</time>
      </trkpt>
      <trkpt lat="47.47619" lon="7.46509">
        <ele>572.7</ele>
        <time>2016-07-29T12:12:18Z</time>
      </trkpt>
      <trkpt lat="47.47624" lon="7.46528">
        <ele>571.7</ele>
        <time>2016-07-29T12:12:27Z</time>
      </trkpt>
      <trkpt lat="47.47637" lon="7.46538">
        <ele>575.5</ele>
        <time>2016-07-29T12:12:37Z</time>
      </trkpt>
      <trkpt lat="47.4765" lon="7.46549">
        <ele>576.5</ele>
        <time>2016-07-29T12:12:47Z</time>
      </trkpt>
      <trkpt lat="47.47661" lon="7.46561">
        <ele>575.3</ele>
        <time>2016-07-29T12:13:00Z</time>
      </trkpt>
      <trkpt lat="47.47668" lon="7.46579">
        <ele>578.3</ele>
        <time>2016-07-29T12:13:10Z</time>
      </trkpt>
      <trkpt lat="47.47679" lon="7.46591">
        <ele>578.4</ele>
        <time>2016-07-29T12:13:27Z</time>
      </trkpt>
      <trkpt lat="47.47691" lon="7.466">
        <ele>581.2</ele>
        <time>2016-07-29T12:13:33Z</time>
      </trkpt>
      <trkpt lat="47.47695" lon="7.4662">
        <ele>583.7</ele>
        <time>2016-07-29T12:13:46Z</time>
      </trkpt>
      <trkpt lat="47.47707" lon="7.46633">
        <ele>584.8</ele>
        <time>2016-07-29T12:14:02Z</time>
      </trkpt>
      <trkpt lat="47.47716" lon="7.46648">
        <ele>586.3</ele>
        <time>2016-07-29T12:14:13Z</time>
      </trkpt>
      <trkpt lat="47.47724" lon="7.46664">
        <ele>587.2</ele>
        <time>2016-07-29T12:14:20Z</time>
      </trkpt>
      <trkpt lat="47.47736" lon="7.46679">
        <ele>583.1</ele>
        <time>2016-07-29T12:14:31Z</time>
      </trkpt>
      <trkpt lat="47.47738" lon="7.46685">
        <ele>582.6</ele>
        <time>2016-07-29T12:14:35Z</time>
      </trkpt>
      <trkpt lat="47.47749" lon="7.46701">
        <ele>585.5</ele>
        <time>2016-07-29T12:14:50Z</time>
      </trkpt>
      <trkpt lat="47.47756" lon="7.4672">
        <ele>587</ele>
        <time>2016-07-29T12:14:58Z</time>
      </trkpt>
      <trkpt lat="47.47767" lon="7.46736">
        <ele>585.4</ele>
        <time>2016-07-29T12:15:13Z</time>
      </trkpt>
      <trkpt lat="47.47781" lon="7.46741">
        <ele>584.1</ele>
        <time>2016-07-29T12:15:24Z</time>
      </trkpt>
      <trkpt lat="47.47788" lon="7.46759">
        <ele>580.4</ele>
        <time>2016-07-29T12:15:33Z</time>
      </trkpt>
      <trkpt lat="47.47799" lon="7.46776">
        <ele>583.6</ele>
        <time>2016-07-29T12:15:50Z</time>
      </trkpt>
      <trkpt lat="47.47812" lon="7.46785">
        <ele>588.4</ele>
        <time>2016-07-29T12:16:03Z</time>
      </trkpt>
      <trkpt lat="47.47817" lon="7.46797">
        <ele>588.8</ele>
        <time>2016-07-29T12:16:10Z</time>
      </trkpt>
      <trkpt lat="47.47815" lon="7.46819">
        <ele>589.6</ele>
        <time>2016-07-29T12:16:22Z</time>
      </trkpt>
      <trkpt lat="47.47822" lon="7.46837">
        <ele>590.2</ele>
        <time>2016-07-29T12:16:35Z</time>
      </trkpt>
      <trkpt lat="47.4783" lon="7.46853">
        <ele>590.6</ele>
        <time>2016-07-29T12:16:44Z</time>
      </trkpt>
      <trkpt lat="47.47837" lon="7.46872">
        <ele>591</ele>
        <time>2016-07-29T12:16:55Z</time>
      </trkpt>
      <trkpt lat="47.47842" lon="7.46892">
        <ele>593.2</ele>
        <time>2016-07-29T12:17:02Z</time>
      </trkpt>
      <trkpt lat="47.47848" lon="7.46911">
        <ele>597.6</ele>
        <time>2016-07-29T12:17:13Z</time>
      </trkpt>
      <trkpt lat="47.47856" lon="7.46928">
        <ele>604.1</ele>
        <time>2016-07-29T12:17:31Z</time>
      </trkpt>
      <trkpt lat="47.47862" lon="7.46946">
        <ele>600</ele>
        <time>2016-07-29T12:17:41Z</time>
      </trkpt>
      <trkpt lat="47.47869" lon="7.46967">
        <ele>596.4</ele>
        <time>2016-07-29T12:17:52Z</time>
      </trkpt>
      <trkpt lat="47.47876" lon="7.46985">
        <ele>594.8</ele>
        <time>2016-07-29T12:18:02Z</time>
      </trkpt>
      <trkpt lat="47.47885" lon="7.47">
        <ele>594.5</ele>
        <time>2016-07-29T12:18:11Z</time>
      </trkpt>
      <trkpt lat="47.47892" lon="7.47019">
        <ele>594.1</ele>
        <time>2016-07-29T12:18:21Z</time>
      </trkpt>
      <trkpt lat="47.47901" lon="7.47035">
        <ele>593</ele>
        <time>2016-07-29T12:18:32Z</time>
      </trkpt>
      <trkpt lat="47.47909" lon="7.47054">
        <ele>593.1</ele>
        <time>2016-07-29T12:18:44Z</time>
      </trkpt>
      <trkpt lat="47.47914" lon="7.47075">
        <ele>595.7</ele>
        <time>2016-07-29T12:18:56Z</time>
      </trkpt>
      <trkpt lat="47.47921" lon="7.47093">
        <ele>597.1</ele>
        <time>2016-07-29T12:19:06Z</time>
      </trkpt>
      <trkpt lat="47.47931" lon="7.47109">
        <ele>598.6</ele>
        <time>2016-07-29T12:19:17Z</time>
      </trkpt>
      <trkpt lat="47.47936" lon="7.47129">
        <ele>605.2</ele>
        <time>2016-07-29T12:19:32Z</time>
      </trkpt>
      <trkpt lat="47.47944" lon="7.47145">
        <ele>606.2</ele>
        <time>2016-07-29T12:19:38Z</time>
      </trkpt>
      <trkpt lat="47.47953" lon="7.47164">
        <ele>607</ele>
        <time>2016-07-29T12:19:50Z</time>
      </trkpt>
      <trkpt lat="47.47962" lon="7.4718">
        <ele>602.6</ele>
        <time>2016-07-29T12:19:59Z</time>
      </trkpt>
      <trkpt lat="47.47972" lon="7.47196">
        <ele>602</ele>
        <time>2016-07-29T12:20:11Z</time>
      </trkpt>
      <trkpt lat="47.47981" lon="7.47213">
        <ele>606.6</ele>
        <time>2016-07-29T12:20:24Z</time>
      </trkpt>
      <trkpt lat="47.47991" lon="7.47227">
        <ele>602.3</ele>
        <time>2016-07-29T12:20:35Z</time>
      </trkpt>
      <trkpt lat="47.48" lon="7.47244">
        <ele>598.4</ele>
        <time>2016-07-29T12:20:46Z</time>
      </trkpt>
      <trkpt lat="47.48008" lon="7.47261">
        <ele>595</ele>
        <time>2016-07-29T12:21:00Z</time>
      </trkpt>
      <trkpt lat="47.48017" lon="7.47277">
        <ele>594.7</ele>
        <time>2016-07-29T12:21:07Z</time>
      </trkpt>
      <trkpt lat="47.48022" lon="7.47287">
        <ele>594.4</ele>
        <time>2016-07-29T12:21:15Z</time>
      </trkpt>
      <trkpt lat="47.48032" lon="7.47291">
        <ele>593.4</ele>
        <time>2016-07-29T12:21:22Z</time>
      </trkpt>
      <trkpt lat="47.48036" lon="7.47314">
        <ele>594.6</ele>
        <time>2016-07-29T12:21:31Z</time>
      </trkpt>
      <trkpt lat="47.48044" lon="7.47335">
        <ele>594.7</ele>
        <time>2016-07-29T12:21:48Z</time>
      </trkpt>
      <trkpt lat="47.48044" lon="7.47355">
        <ele>597.6</ele>
        <time>2016-07-29T12:22:54Z</time>
      </trkpt>
      <trkpt lat="47.48031" lon="7.4736">
        <ele>597</ele>
        <time>2016-07-29T12:23:02Z</time>
      </trkpt>
      <trkpt lat="47.48035" lon="7.47379">
        <ele>596</ele>
        <time>2016-07-29T12:23:15Z</time>
      </trkpt>
      <trkpt lat="47.48031" lon="7.474">
        <ele>595.2</ele>
        <time>2016-07-29T12:23:26Z</time>
      </trkpt>
      <trkpt lat="47.4803" lon="7.47402">
        <ele>595.1</ele>
        <time>2016-07-29T12:23:27Z</time>
      </trkpt>
      <trkpt lat="47.48038" lon="7.47406">
        <ele>584.4</ele>
        <time>2016-07-29T12:24:12Z</time>
      </trkpt>
      <trkpt lat="47.48037" lon="7.47426">
        <ele>586</ele>
        <time>2016-07-29T12:24:24Z</time>
      </trkpt>
      <trkpt lat="47.48035" lon="7.47439">
        <ele>586.9</ele>
        <time>2016-07-29T12:24:33Z</time>
      </trkpt>
      <trkpt lat="47.48042" lon="7.47456">
        <ele>589.5</ele>
        <time>2016-07-29T12:24:43Z</time>
      </trkpt>
      <trkpt lat="47.48039" lon="7.47467">
        <ele>588.4</ele>
        <time>2016-07-29T12:24:49Z</time>
      </trkpt>
      <trkpt lat="47.48029" lon="7.47483">
        <ele>586.2</ele>
        <time>2016-07-29T12:25:01Z</time>
      </trkpt>
      <trkpt lat="47.48027" lon="7.47503">
        <ele>590.2</ele>
        <time>2016-07-29T12:25:22Z</time>
      </trkpt>
      <trkpt lat="47.48023" lon="7.47523">
        <ele>588</ele>
        <time>2016-07-29T12:25:33Z</time>
      </trkpt>
      <trkpt lat="47.48015" lon="7.47537">
        <ele>589.1</ele>
        <time>2016-07-29T12:25:42Z</time>
      </trkpt>
      <trkpt lat="47.4802" lon="7.47537">
        <ele>590.3</ele>
        <time>2016-07-29T12:25:52Z</time>
      </trkpt>
      <trkpt lat="47.48018" lon="7.47557">
        <ele>592</ele>
        <time>2016-07-29T12:26:06Z</time>
      </trkpt>
      <trkpt lat="47.4801" lon="7.47573">
        <ele>595.9</ele>
        <time>2016-07-29T12:26:18Z</time>
      </trkpt>
      <trkpt lat="47.48011" lon="7.47593">
        <ele>595.4</ele>
        <time>2016-07-29T12:26:28Z</time>
      </trkpt>
      <trkpt lat="47.48011" lon="7.47615">
        <ele>596.5</ele>
        <time>2016-07-29T12:26:41Z</time>
      </trkpt>
      <trkpt lat="47.48007" lon="7.47634">
        <ele>601.4</ele>
        <time>2016-07-29T12:26:56Z</time>
      </trkpt>
      <trkpt lat="47.48002" lon="7.47654">
        <ele>604</ele>
        <time>2016-07-29T12:27:08Z</time>
      </trkpt>
      <trkpt lat="47.47998" lon="7.47674">
        <ele>609.3</ele>
        <time>2016-07-29T12:27:19Z</time>
      </trkpt>
      <trkpt lat="47.47993" lon="7.47688">
        <ele>611.2</ele>
        <time>2016-07-29T12:27:27Z</time>
      </trkpt>
      <trkpt lat="47.48002" lon="7.47705">
        <ele>608.5</ele>
        <time>2016-07-29T12:27:35Z</time>
      </trkpt>
      <trkpt lat="47.48008" lon="7.47723">
        <ele>602</ele>
        <time>2016-07-29T12:27:46Z</time>
      </trkpt>
      <trkpt lat="47.48017" lon="7.47739">
        <ele>599</ele>
        <time>2016-07-29T12:27:52Z</time>
      </trkpt>
      <trkpt lat="47.4802" lon="7.4776">
        <ele>602.4</ele>
        <time>2016-07-29T12:28:08Z</time>
      </trkpt>
      <trkpt lat="47.48021" lon="7.47781">
        <ele>600.7</ele>
        <time>2016-07-29T12:28:23Z</time>
      </trkpt>
      <trkpt lat="47.48028" lon="7.478">
        <ele>599.7</ele>
        <time>2016-07-29T12:28:34Z</time>
      </trkpt>
      <trkpt lat="47.48028" lon="7.47821">
        <ele>599.2</ele>
        <time>2016-07-29T12:28:43Z</time>
      </trkpt>
      <trkpt lat="47.48036" lon="7.47837">
        <ele>600.3</ele>
        <time>2016-07-29T12:28:49Z</time>
      </trkpt>
      <trkpt lat="47.48046" lon="7.47853">
        <ele>602.8</ele>
        <time>2016-07-29T12:29:03Z</time>
      </trkpt>
      <trkpt lat="47.4805" lon="7.47875">
        <ele>601.2</ele>
        <time>2016-07-29T12:29:16Z</time>
      </trkpt>
      <trkpt lat="47.48054" lon="7.47894">
        <ele>602.6</ele>
        <time>2016-07-29T12:29:33Z</time>
      </trkpt>
      <trkpt lat="47.48062" lon="7.47911">
        <ele>596.6</ele>
        <time>2016-07-29T12:29:41Z</time>
      </trkpt>
      <trkpt lat="47.48067" lon="7.47923">
        <ele>595.8</ele>
        <time>2016-07-29T12:29:48Z</time>
      </trkpt>
      <trkpt lat="47.48073" lon="7.47929">
        <ele>595</ele>
        <time>2016-07-29T12:29:55Z</time>
      </trkpt>
      <trkpt lat="47.48077" lon="7.4795">
        <ele>596</ele>
        <time>2016-07-29T12:30:09Z</time>
      </trkpt>
      <trkpt lat="47.48079" lon="7.47971">
        <ele>594</ele>
        <time>2016-07-29T12:30:20Z</time>
      </trkpt>
      <trkpt lat="47.4808" lon="7.47992">
        <ele>593</ele>
        <time>2016-07-29T12:30:26Z</time>
      </trkpt>
      <trkpt lat="47.48087" lon="7.48003">
        <ele>594</ele>
        <time>2016-07-29T12:30:36Z</time>
      </trkpt>
      <trkpt lat="47.48087" lon="7.48025">
        <ele>594.9</ele>
        <time>2016-07-29T12:30:54Z</time>
      </trkpt>
      <trkpt lat="47.48092" lon="7.48043">
        <ele>596.5</ele>
        <time>2016-07-29T12:31:27Z</time>
      </trkpt>
      <trkpt lat="47.48097" lon="7.48064">
        <ele>596.2</ele>
        <time>2016-07-29T12:31:40Z</time>
      </trkpt>
      <trkpt lat="47.48103" lon="7.48081">
        <ele>594.3</ele>
        <time>2016-07-29T12:31:47Z</time>
      </trkpt>
      <trkpt lat="47.4811" lon="7.481">
        <ele>590</ele>
        <time>2016-07-29T12:31:55Z</time>
      </trkpt>
      <trkpt lat="47.48111" lon="7.4812">
        <ele>589.7</ele>
        <time>2016-07-29T12:32:05Z</time>
      </trkpt>
      <trkpt lat="47.48107" lon="7.4814">
        <ele>589.4</ele>
        <time>2016-07-29T12:32:19Z</time>
      </trkpt>
      <trkpt lat="47.48108" lon="7.48161">
        <ele>589.1</ele>
        <time>2016-07-29T12:32:31Z</time>
      </trkpt>
      <trkpt lat="47.48112" lon="7.48182">
        <ele>588.8</ele>
        <time>2016-07-29T12:32:38Z</time>
      </trkpt>
      <trkpt lat="47.48118" lon="7.48201">
        <ele>588.7</ele>
        <time>2016-07-29T12:32:57Z</time>
      </trkpt>
      <trkpt lat="47.48121" lon="7.48221">
        <ele>589.4</ele>
        <time>2016-07-29T12:33:07Z</time>
      </trkpt>
      <trkpt lat="47.48123" lon="7.48247">
        <ele>586.5</ele>
        <time>2016-07-29T12:33:21Z</time>
      </trkpt>
      <trkpt lat="47.48127" lon="7.48267">
        <ele>584.8</ele>
        <time>2016-07-29T12:33:29Z</time>
      </trkpt>
      <trkpt lat="47.48131" lon="7.48286">
        <ele>581.1</ele>
        <time>2016-07-29T12:33:45Z</time>
      </trkpt>
      <trkpt lat="47.48134" lon="7.48306">
        <ele>579.7</ele>
        <time>2016-07-29T12:33:52Z</time>
      </trkpt>
      <trkpt lat="47.48135" lon="7.48323">
        <ele>580.1</ele>
        <time>2016-07-29T12:34:00Z</time>
      </trkpt>
      <trkpt lat="47.48131" lon="7.48336">
        <ele>582</ele>
        <time>2016-07-29T12:34:07Z</time>
      </trkpt>
      <trkpt lat="47.48133" lon="7.48356">
        <ele>577.5</ele>
        <time>2016-07-29T12:34:20Z</time>
      </trkpt>
      <trkpt lat="47.48136" lon="7.48377">
        <ele>577.4</ele>
        <time>2016-07-29T12:34:37Z</time>
      </trkpt>
      <trkpt lat="47.48139" lon="7.48397">
        <ele>580.3</ele>
        <time>2016-07-29T12:34:52Z</time>
      </trkpt>
      <trkpt lat="47.48147" lon="7.48417">
        <ele>575.9</ele>
        <time>2016-07-29T12:35:08Z</time>
      </trkpt>
      <trkpt lat="47.48154" lon="7.48437">
        <ele>574.5</ele>
        <time>2016-07-29T12:35:14Z</time>
      </trkpt>
      <trkpt lat="47.48154" lon="7.48458">
        <ele>574.1</ele>
        <time>2016-07-29T12:35:35Z</time>
      </trkpt>
      <trkpt lat="47.48145" lon="7.4847">
        <ele>569.1</ele>
        <time>2016-07-29T12:35:47Z</time>
      </trkpt>
      <trkpt lat="47.48145" lon="7.48466">
        <ele>564.2</ele>
        <time>2016-07-29T12:35:54Z</time>
      </trkpt>
      <trkpt lat="47.4814" lon="7.48485">
        <ele>566.2</ele>
        <time>2016-07-29T12:36:07Z</time>
      </trkpt>
      <trkpt lat="47.48147" lon="7.485">
        <ele>562.4</ele>
        <time>2016-07-29T12:36:17Z</time>
      </trkpt>
      <trkpt lat="47.48146" lon="7.48483">
        <ele>560</ele>
        <time>2016-07-29T12:36:22Z</time>
      </trkpt>
      <trkpt lat="47.48149" lon="7.48485">
        <ele>560</ele>
        <time>2016-07-29T12:36:23Z</time>
      </trkpt>
      <trkpt lat="47.48147" lon="7.48489">
        <ele>560</ele>
        <time>2016-07-29T12:36:24Z</time>
      </trkpt>
      <trkpt lat="47.4815" lon="7.48511">
        <ele>561.5</ele>
        <time>2016-07-29T12:36:38Z</time>
      </trkpt>
      <trkpt lat="47.48156" lon="7.48529">
        <ele>560.1</ele>
        <time>2016-07-29T12:36:45Z</time>
      </trkpt>
      <trkpt lat="47.48163" lon="7.48547">
        <ele>565.4</ele>
        <time>2016-07-29T12:36:58Z</time>
      </trkpt>
      <trkpt lat="47.48167" lon="7.48567">
        <ele>567.8</ele>
        <time>2016-07-29T12:37:14Z</time>
      </trkpt>
      <trkpt lat="47.48169" lon="7.48589">
        <ele>566</ele>
        <time>2016-07-29T12:37:24Z</time>
      </trkpt>
      <trkpt lat="47.48166" lon="7.48609">
        <ele>563.7</ele>
        <time>2016-07-29T12:37:36Z</time>
      </trkpt>
      <trkpt lat="47.48164" lon="7.48613">
        <ele>563</ele>
        <time>2016-07-29T12:37:40Z</time>
      </trkpt>
      <trkpt lat="47.48173" lon="7.48628">
        <ele>557.3</ele>
        <time>2016-07-29T12:37:48Z</time>
      </trkpt>
      <trkpt lat="47.48178" lon="7.48652">
        <ele>553</ele>
        <time>2016-07-29T12:37:58Z</time>
      </trkpt>
      <trkpt lat="47.48184" lon="7.48669">
        <ele>553</ele>
        <time>2016-07-29T12:38:08Z</time>
      </trkpt>
      <trkpt lat="47.48183" lon="7.48691">
        <ele>552.9</ele>
        <time>2016-07-29T12:38:17Z</time>
      </trkpt>
      <trkpt lat="47.4819" lon="7.48711">
        <ele>550</ele>
        <time>2016-07-29T12:38:32Z</time>
      </trkpt>
      <trkpt lat="47.48196" lon="7.48731">
        <ele>548.3</ele>
        <time>2016-07-29T12:38:44Z</time>
      </trkpt>
      <trkpt lat="47.48195" lon="7.48743">
        <ele>548.1</ele>
        <time>2016-07-29T12:38:53Z</time>
      </trkpt>
      <trkpt lat="47.48189" lon="7.48744">
        <ele>539</ele>
        <time>2016-07-29T12:39:11Z</time>
      </trkpt>
      <trkpt lat="47.48191" lon="7.48742">
        <ele>540.9</ele>
        <time>2016-07-29T12:39:41Z</time>
      </trkpt>
      <trkpt lat="47.48187" lon="7.48745">
        <ele>542.3</ele>
        <time>2016-07-29T12:39:50Z</time>
      </trkpt>
      <trkpt lat="47.48188" lon="7.4875">
        <ele>550</ele>
        <time>2016-07-29T12:40:13Z</time>
      </trkpt>
      <trkpt lat="47.48188" lon="7.48745">
        <ele>544.9</ele>
        <time>2016-07-29T12:40:33Z</time>
      </trkpt>
      <trkpt lat="47.48189" lon="7.4875">
        <ele>546.2</ele>
        <time>2016-07-29T12:40:47Z</time>
      </trkpt>
      <trkpt lat="47.4819" lon="7.48748">
        <ele>546.5</ele>
        <time>2016-07-29T12:40:57Z</time>
      </trkpt>
      <trkpt lat="47.48176" lon="7.48749">
        <ele>540</ele>
        <time>2016-07-29T12:41:18Z</time>
      </trkpt>
      <trkpt lat="47.48167" lon="7.48765">
        <ele>542.1</ele>
        <time>2016-07-29T12:41:41Z</time>
      </trkpt>
      <trkpt lat="47.48155" lon="7.48772">
        <ele>540.6</ele>
        <time>2016-07-29T12:41:52Z</time>
      </trkpt>
      <trkpt lat="47.48142" lon="7.48781">
        <ele>539.3</ele>
        <time>2016-07-29T12:42:01Z</time>
      </trkpt>
      <trkpt lat="47.48128" lon="7.48788">
        <ele>537.7</ele>
        <time>2016-07-29T12:42:12Z</time>
      </trkpt>
      <trkpt lat="47.48115" lon="7.48794">
        <ele>535.2</ele>
        <time>2016-07-29T12:42:22Z</time>
      </trkpt>
      <trkpt lat="47.48103" lon="7.48804">
        <ele>531</ele>
        <time>2016-07-29T12:42:34Z</time>
      </trkpt>
      <trkpt lat="47.48089" lon="7.4881">
        <ele>527.2</ele>
        <time>2016-07-29T12:42:46Z</time>
      </trkpt>
      <trkpt lat="47.48074" lon="7.48812">
        <ele>524</ele>
        <time>2016-07-29T12:43:18Z</time>
      </trkpt>
      <trkpt lat="47.48061" lon="7.48816">
        <ele>524</ele>
        <time>2016-07-29T12:43:28Z</time>
      </trkpt>
      <trkpt lat="47.48047" lon="7.48821">
        <ele>523</ele>
        <time>2016-07-29T12:43:39Z</time>
      </trkpt>
      <trkpt lat="47.48033" lon="7.48826">
        <ele>516.6</ele>
        <time>2016-07-29T12:43:50Z</time>
      </trkpt>
      <trkpt lat="47.48018" lon="7.48831">
        <ele>515.1</ele>
        <time>2016-07-29T12:43:59Z</time>
      </trkpt>
      <trkpt lat="47.48005" lon="7.48835">
        <ele>516.7</ele>
        <time>2016-07-29T12:44:10Z</time>
      </trkpt>
      <trkpt lat="47.47991" lon="7.48839">
        <ele>511.9</ele>
        <time>2016-07-29T12:44:21Z</time>
      </trkpt>
      <trkpt lat="47.47976" lon="7.48844">
        <ele>510.4</ele>
        <time>2016-07-29T12:44:32Z</time>
      </trkpt>
      <trkpt lat="47.47963" lon="7.48848">
        <ele>509.3</ele>
        <time>2016-07-29T12:44:41Z</time>
      </trkpt>
      <trkpt lat="47.47949" lon="7.48852">
        <ele>509.7</ele>
        <time>2016-07-29T12:44:52Z</time>
      </trkpt>
      <trkpt lat="47.47935" lon="7.48857">
        <ele>508.3</ele>
        <time>2016-07-29T12:45:02Z</time>
      </trkpt>
      <trkpt lat="47.47921" lon="7.48861">
        <ele>509.6</ele>
        <time>2016-07-29T12:45:12Z</time>
      </trkpt>
      <trkpt lat="47.47907" lon="7.48866">
        <ele>511.3</ele>
        <time>2016-07-29T12:45:23Z</time>
      </trkpt>
      <trkpt lat="47.47893" lon="7.48871">
        <ele>511.7</ele>
        <time>2016-07-29T12:45:33Z</time>
      </trkpt>
      <trkpt lat="47.47879" lon="7.48875">
        <ele>512.1</ele>
        <time>2016-07-29T12:45:43Z</time>
      </trkpt>
      <trkpt lat="47.47865" lon="7.4888">
        <ele>512.5</ele>
        <time>2016-07-29T12:45:53Z</time>
      </trkpt>
      <trkpt lat="47.47851" lon="7.48884">
        <ele>512.9</ele>
        <time>2016-07-29T12:46:03Z</time>
      </trkpt>
      <trkpt lat="47.47837" lon="7.48889">
        <ele>513.4</ele>
        <time>2016-07-29T12:46:14Z</time>
      </trkpt>
      <trkpt lat="47.47823" lon="7.48894">
        <ele>513.8</ele>
        <time>2016-07-29T12:46:25Z</time>
      </trkpt>
      <trkpt lat="47.47809" lon="7.48898">
        <ele>512.2</ele>
        <time>2016-07-29T12:46:36Z</time>
      </trkpt>
      <trkpt lat="47.47795" lon="7.48903">
        <ele>511.6</ele>
        <time>2016-07-29T12:46:45Z</time>
      </trkpt>
      <trkpt lat="47.47781" lon="7.48908">
        <ele>513</ele>
        <time>2016-07-29T12:46:55Z</time>
      </trkpt>
      <trkpt lat="47.47767" lon="7.48911">
        <ele>514.4</ele>
        <time>2016-07-29T12:47:06Z</time>
      </trkpt>
      <trkpt lat="47.47754" lon="7.48918">
        <ele>515.7</ele>
        <time>2016-07-29T12:47:18Z</time>
      </trkpt>
      <trkpt lat="47.4774" lon="7.4892">
        <ele>516.8</ele>
        <time>2016-07-29T12:47:28Z</time>
      </trkpt>
      <trkpt lat="47.47726" lon="7.48922">
        <ele>517.6</ele>
        <time>2016-07-29T12:47:39Z</time>
      </trkpt>
      <trkpt lat="47.47712" lon="7.4893">
        <ele>515.9</ele>
        <time>2016-07-29T12:47:53Z</time>
      </trkpt>
      <trkpt lat="47.47699" lon="7.48935">
        <ele>514.2</ele>
        <time>2016-07-29T12:48:04Z</time>
      </trkpt>
      <trkpt lat="47.47684" lon="7.48936">
        <ele>513</ele>
        <time>2016-07-29T12:48:12Z</time>
      </trkpt>
      <trkpt lat="47.4767" lon="7.4893">
        <ele>512</ele>
        <time>2016-07-29T12:48:19Z</time>
      </trkpt>
      <trkpt lat="47.47656" lon="7.48926">
        <ele>511.4</ele>
        <time>2016-07-29T12:48:32Z</time>
      </trkpt>
      <trkpt lat="47.47643" lon="7.4893">
        <ele>511.4</ele>
        <time>2016-07-29T12:48:43Z</time>
      </trkpt>
      <trkpt lat="47.47628" lon="7.4893">
        <ele>516.4</ele>
        <time>2016-07-29T12:48:57Z</time>
      </trkpt>
      <trkpt lat="47.47614" lon="7.48933">
        <ele>519.4</ele>
        <time>2016-07-29T12:49:09Z</time>
      </trkpt>
      <trkpt lat="47.47599" lon="7.48932">
        <ele>524.4</ele>
        <time>2016-07-29T12:49:23Z</time>
      </trkpt>
      <trkpt lat="47.47586" lon="7.48935">
        <ele>525.4</ele>
        <time>2016-07-29T12:49:31Z</time>
      </trkpt>
      <trkpt lat="47.47572" lon="7.48939">
        <ele>525.7</ele>
        <time>2016-07-29T12:49:43Z</time>
      </trkpt>
      <trkpt lat="47.47557" lon="7.48943">
        <ele>527.3</ele>
        <time>2016-07-29T12:49:58Z</time>
      </trkpt>
      <trkpt lat="47.47544" lon="7.48938">
        <ele>527.6</ele>
        <time>2016-07-29T12:50:08Z</time>
      </trkpt>
      <trkpt lat="47.47529" lon="7.4893">
        <ele>527.9</ele>
        <time>2016-07-29T12:50:17Z</time>
      </trkpt>
      <trkpt lat="47.4752" lon="7.48946">
        <ele>530.1</ele>
        <time>2016-07-29T12:50:32Z</time>
      </trkpt>
      <trkpt lat="47.47509" lon="7.48958">
        <ele>533</ele>
        <time>2016-07-29T12:50:46Z</time>
      </trkpt>
      <trkpt lat="47.47497" lon="7.48968">
        <ele>536</ele>
        <time>2016-07-29T12:50:59Z</time>
      </trkpt>
      <trkpt lat="47.4748" lon="7.48977">
        <ele>535.1</ele>
        <time>2016-07-29T12:51:08Z</time>
      </trkpt>
      <trkpt lat="47.47468" lon="7.48989">
        <ele>531</ele>
        <time>2016-07-29T12:51:22Z</time>
      </trkpt>
      <trkpt lat="47.47454" lon="7.48993">
        <ele>527.3</ele>
        <time>2016-07-29T12:51:30Z</time>
      </trkpt>
      <trkpt lat="47.47441" lon="7.49">
        <ele>524.4</ele>
        <time>2016-07-29T12:51:37Z</time>
      </trkpt>
      <trkpt lat="47.47428" lon="7.49011">
        <ele>525.2</ele>
        <time>2016-07-29T12:51:49Z</time>
      </trkpt>
      <trkpt lat="47.47415" lon="7.49018">
        <ele>526.1</ele>
        <time>2016-07-29T12:51:57Z</time>
      </trkpt>
      <trkpt lat="47.47409" lon="7.49022">
        <ele>526.8</ele>
        <time>2016-07-29T12:52:03Z</time>
      </trkpt>
      <trkpt lat="47.47412" lon="7.49021">
        <ele>517</ele>
        <time>2016-07-29T12:52:21Z</time>
      </trkpt>
      <trkpt lat="47.47399" lon="7.4901">
        <ele>517.5</ele>
        <time>2016-07-29T12:52:31Z</time>
      </trkpt>
      <trkpt lat="47.47387" lon="7.49">
        <ele>516</ele>
        <time>2016-07-29T12:52:40Z</time>
      </trkpt>
      <trkpt lat="47.47375" lon="7.48989">
        <ele>514.3</ele>
        <time>2016-07-29T12:52:48Z</time>
      </trkpt>
      <trkpt lat="47.47364" lon="7.48977">
        <ele>512.4</ele>
        <time>2016-07-29T12:53:01Z</time>
      </trkpt>
      <trkpt lat="47.47354" lon="7.48964">
        <ele>519.1</ele>
        <time>2016-07-29T12:53:16Z</time>
      </trkpt>
      <trkpt lat="47.47341" lon="7.48955">
        <ele>519.8</ele>
        <time>2016-07-29T12:53:32Z</time>
      </trkpt>
      <trkpt lat="47.47325" lon="7.4895">
        <ele>516.6</ele>
        <time>2016-07-29T12:53:41Z</time>
      </trkpt>
      <trkpt lat="47.47311" lon="7.48946">
        <ele>514.8</ele>
        <time>2016-07-29T12:53:49Z</time>
      </trkpt>
      <trkpt lat="47.47297" lon="7.48943">
        <ele>512.8</ele>
        <time>2016-07-29T12:54:07Z</time>
      </trkpt>
      <trkpt lat="47.47282" lon="7.48942">
        <ele>511.7</ele>
        <time>2016-07-29T12:54:17Z</time>
      </trkpt>
      <trkpt lat="47.47268" lon="7.4894">
        <ele>511</ele>
        <time>2016-07-29T12:54:23Z</time>
      </trkpt>
      <trkpt lat="47.47255" lon="7.48929">
        <ele>512.7</ele>
        <time>2016-07-29T12:54:36Z</time>
      </trkpt>
      <trkpt lat="47.47243" lon="7.48917">
        <ele>512</ele>
        <time>2016-07-29T12:54:46Z</time>
      </trkpt>
      <trkpt lat="47.47231" lon="7.48905">
        <ele>508.8</ele>
        <time>2016-07-29T12:55:02Z</time>
      </trkpt>
      <trkpt lat="47.47217" lon="7.48901">
        <ele>510.3</ele>
        <time>2016-07-29T12:55:13Z</time>
      </trkpt>
      <trkpt lat="47.47203" lon="7.48895">
        <ele>510.7</ele>
        <time>2016-07-29T12:55:20Z</time>
      </trkpt>
      <trkpt lat="47.47189" lon="7.48891">
        <ele>509.6</ele>
        <time>2016-07-29T12:55:26Z</time>
      </trkpt>
      <trkpt lat="47.47175" lon="7.48885">
        <ele>508.4</ele>
        <time>2016-07-29T12:55:33Z</time>
      </trkpt>
      <trkpt lat="47.47161" lon="7.48883">
        <ele>507</ele>
        <time>2016-07-29T12:55:41Z</time>
      </trkpt>
      <trkpt lat="47.47151" lon="7.48867">
        <ele>507.8</ele>
        <time>2016-07-29T12:56:02Z</time>
      </trkpt>
      <trkpt lat="47.47137" lon="7.48858">
        <ele>506</ele>
        <time>2016-07-29T12:56:09Z</time>
      </trkpt>
      <trkpt lat="47.47129" lon="7.48843">
        <ele>504</ele>
        <time>2016-07-29T12:56:17Z</time>
      </trkpt>
      <trkpt lat="47.47125" lon="7.48831">
        <ele>499</ele>
        <time>2016-07-29T12:56:27Z</time>
      </trkpt>
      <trkpt lat="47.47114" lon="7.4882">
        <ele>503</ele>
        <time>2016-07-29T12:56:37Z</time>
      </trkpt>
      <trkpt lat="47.47103" lon="7.48807">
        <ele>506.5</ele>
        <time>2016-07-29T12:56:45Z</time>
      </trkpt>
      <trkpt lat="47.47097" lon="7.48788">
        <ele>505</ele>
        <time>2016-07-29T12:56:54Z</time>
      </trkpt>
      <trkpt lat="47.4709" lon="7.48771">
        <ele>503</ele>
        <time>2016-07-29T12:57:03Z</time>
      </trkpt>
      <trkpt lat="47.47081" lon="7.48754">
        <ele>507.4</ele>
        <time>2016-07-29T12:57:15Z</time>
      </trkpt>
      <trkpt lat="47.4707" lon="7.48739">
        <ele>512</ele>
        <time>2016-07-29T12:57:24Z</time>
      </trkpt>
      <trkpt lat="47.47059" lon="7.48726">
        <ele>513.2</ele>
        <time>2016-07-29T12:57:33Z</time>
      </trkpt>
      <trkpt lat="47.47047" lon="7.48714">
        <ele>512.2</ele>
        <time>2016-07-29T12:57:44Z</time>
      </trkpt>
      <trkpt lat="47.47034" lon="7.48705">
        <ele>512.7</ele>
        <time>2016-07-29T12:57:55Z</time>
      </trkpt>
      <trkpt lat="47.47021" lon="7.48697">
        <ele>513.2</ele>
        <time>2016-07-29T12:58:05Z</time>
      </trkpt>
      <trkpt lat="47.47008" lon="7.48691">
        <ele>513.6</ele>
        <time>2016-07-29T12:58:15Z</time>
      </trkpt>
      <trkpt lat="47.46993" lon="7.48689">
        <ele>511</ele>
        <time>2016-07-29T12:58:26Z</time>
      </trkpt>
      <trkpt lat="47.46979" lon="7.48692">
        <ele>513</ele>
        <time>2016-07-29T12:58:37Z</time>
      </trkpt>
      <trkpt lat="47.46966" lon="7.48698">
        <ele>515.4</ele>
        <time>2016-07-29T12:58:56Z</time>
      </trkpt>
      <trkpt lat="47.46952" lon="7.48698">
        <ele>515.7</ele>
        <time>2016-07-29T12:59:06Z</time>
      </trkpt>
      <trkpt lat="47.46939" lon="7.48702">
        <ele>516</ele>
        <time>2016-07-29T12:59:17Z</time>
      </trkpt>
      <trkpt lat="47.46926" lon="7.48711">
        <ele>516.3</ele>
        <time>2016-07-29T12:59:28Z</time>
      </trkpt>
      <trkpt lat="47.46916" lon="7.48727">
        <ele>516.6</ele>
        <time>2016-07-29T12:59:40Z</time>
      </trkpt>
      <trkpt lat="47.46905" lon="7.4874">
        <ele>516.9</ele>
        <time>2016-07-29T12:59:52Z</time>
      </trkpt>
      <trkpt lat="47.46891" lon="7.48739">
        <ele>517.3</ele>
        <time>2016-07-29T13:00:07Z</time>
      </trkpt>
      <trkpt lat="47.46885" lon="7.48734">
        <ele>517.6</ele>
        <time>2016-07-29T13:00:18Z</time>
      </trkpt>
      <trkpt lat="47.4689" lon="7.48723">
        <ele>517.7</ele>
        <time>2016-07-29T13:00:34Z</time>
      </trkpt>
      <trkpt lat="47.46888" lon="7.48723">
        <ele>516.2</ele>
        <time>2016-07-29T13:00:44Z</time>
      </trkpt>
      <trkpt lat="47.46891" lon="7.48729">
        <ele>515.1</ele>
        <time>2016-07-29T13:01:00Z</time>
      </trkpt>
    </trkseg>
  </trk>
</gpx>